<?xml version='1.0' encoding='UTF-8'?><gpx version="1.1" creator="JPX - https://github.com/jenetics/jpx" xmlns="http://www.topografix.com/GPX/1/1"><trk><trkseg><trkpt lat="45.5137263" lon="10.478006"><ele>229.20000000000002</ele><time>2026-03-20T16:56:32.766Z</time></trkpt><trkpt lat="45.5138472" lon="10.4781918"><ele>232.40000000000003</ele><time>2026-03-20T16:56:37.616Z</time></trkpt><trkpt lat="45.5139069" lon="10.4782565"><ele>235.6</ele><time>2026-03-20T16:56:38.616Z</time></trkpt><trkpt lat="45.513914" lon="10.4783539"><ele>238.8</ele><time>2026-03-20T16:56:41.616Z</time></trkpt><trkpt lat="45.5138711" lon="10.4784339"><ele>242.0</ele><time>2026-03-20T16:56:48.616Z</time></trkpt><trkpt lat="45.5137654" lon="10.4784314"><ele>238.8</ele><time>2026-03-20T16:56:51.616Z</time></trkpt><trkpt lat="45.5136281" lon="10.4784468"><ele>235.6</ele><time>2026-03-20T16:56:53.616Z</time></trkpt><trkpt lat="45.513545" lon="10.4784243"><ele>232.40000000000003</ele><time>2026-03-20T16:56:54.616Z</time></trkpt><trkpt lat="45.513455" lon="10.4783567"><ele>229.20000000000002</ele><time>2026-03-20T16:56:55.616Z</time></trkpt><trkpt lat="45.5133983" lon="10.47827"><ele>226.0</ele><time>2026-03-20T16:56:56.617Z</time></trkpt><trkpt lat="45.5133583" lon="10.4781733"><ele>226.0</ele><time>2026-03-20T16:56:57.616Z</time></trkpt><trkpt lat="45.5133533" lon="10.4780633"><ele>226.00000000000003</ele><time>2026-03-20T16:56:58.616Z</time></trkpt><trkpt lat="45.51335" lon="10.477955"><ele>226.00000000000003</ele><time>2026-03-20T16:56:59.616Z</time></trkpt><trkpt lat="45.5133383" lon="10.4778583"><ele>226.0</ele><time>2026-03-20T16:57:00.616Z</time></trkpt><trkpt lat="45.5132833" lon="10.4777367"><ele>226.0</ele><time>2026-03-20T16:57:02.617Z</time></trkpt><trkpt lat="45.5131683" lon="10.4776467"><ele>226.20000000000002</ele><time>2026-03-20T16:57:04.616Z</time></trkpt><trkpt lat="45.5130567" lon="10.4775517"><ele>226.40000000000003</ele><time>2026-03-20T16:57:06.616Z</time></trkpt><trkpt lat="45.5129917" lon="10.4775067"><ele>226.6</ele><time>2026-03-20T16:57:07.616Z</time></trkpt><trkpt lat="45.5129217" lon="10.4774783"><ele>226.8</ele><time>2026-03-20T16:57:08.617Z</time></trkpt><trkpt lat="45.5128283" lon="10.4774583"><ele>227.0</ele><time>2026-03-20T16:57:09.616Z</time></trkpt><trkpt lat="45.51272" lon="10.4774517"><ele>225.39999999999998</ele><time>2026-03-20T16:57:10.616Z</time></trkpt><trkpt lat="45.5126117" lon="10.4774533"><ele>223.79999999999998</ele><time>2026-03-20T16:57:11.616Z</time></trkpt><trkpt lat="45.51251" lon="10.4774467"><ele>222.2</ele><time>2026-03-20T16:57:12.617Z</time></trkpt><trkpt lat="45.5124" lon="10.4774517"><ele>220.6</ele><time>2026-03-20T16:57:13.617Z</time></trkpt><trkpt lat="45.5122767" lon="10.4774517"><ele>219.0</ele><time>2026-03-20T16:57:14.616Z</time></trkpt><trkpt lat="45.5121567" lon="10.4774433"><ele>218.5</ele><time>2026-03-20T16:57:15.616Z</time></trkpt><trkpt lat="45.5120217" lon="10.4774383"><ele>218.0</ele><time>2026-03-20T16:57:16.616Z</time></trkpt><trkpt lat="45.5118883" lon="10.47743"><ele>217.5</ele><time>2026-03-20T16:57:17.616Z</time></trkpt><trkpt lat="45.511785" lon="10.4774367"><ele>217.0</ele><time>2026-03-20T16:57:18.616Z</time></trkpt><trkpt lat="45.5116917" lon="10.477425"><ele>216.99999999999997</ele><time>2026-03-20T16:57:19.617Z</time></trkpt><trkpt lat="45.5115983" lon="10.4774267"><ele>217.0</ele><time>2026-03-20T16:57:20.616Z</time></trkpt><trkpt lat="45.5115267" lon="10.4774133"><ele>217.0</ele><time>2026-03-20T16:57:21.616Z</time></trkpt><trkpt lat="45.5114583" lon="10.47741"><ele>217.0</ele><time>2026-03-20T16:57:22.616Z</time></trkpt><trkpt lat="45.51139" lon="10.4774267"><ele>216.99999999999997</ele><time>2026-03-20T16:57:23.616Z</time></trkpt><trkpt lat="45.5113333" lon="10.47752"><ele>217.0</ele><time>2026-03-20T16:57:25.616Z</time></trkpt><trkpt lat="45.5113217" lon="10.4776517"><ele>217.0</ele><time>2026-03-20T16:57:27.616Z</time></trkpt><trkpt lat="45.511325" lon="10.4777867"><ele>217.0</ele><time>2026-03-20T16:57:29.616Z</time></trkpt><trkpt lat="45.5112533" lon="10.477925"><ele>217.0</ele><time>2026-03-20T16:57:51.616Z</time></trkpt><trkpt lat="45.5112367" lon="10.4780183"><ele>217.0</ele><time>2026-03-20T16:57:53.616Z</time></trkpt><trkpt lat="45.51121" lon="10.4781533"><ele>217.0</ele><time>2026-03-20T16:57:55.616Z</time></trkpt><trkpt lat="45.5111583" lon="10.4783033"><ele>215.6</ele><time>2026-03-20T16:57:57.616Z</time></trkpt><trkpt lat="45.5111017" lon="10.47838"><ele>214.2</ele><time>2026-03-20T16:57:58.616Z</time></trkpt><trkpt lat="45.511025" lon="10.4784433"><ele>212.8</ele><time>2026-03-20T16:57:59.616Z</time></trkpt><trkpt lat="45.5109167" lon="10.47837"><ele>211.4</ele><time>2026-03-20T16:58:00.617Z</time></trkpt><trkpt lat="45.51081" lon="10.4783267"><ele>210.0</ele><time>2026-03-20T16:58:01.616Z</time></trkpt><trkpt lat="45.5107267" lon="10.47826"><ele>210.0</ele><time>2026-03-20T16:58:02.616Z</time></trkpt><trkpt lat="45.5106417" lon="10.4781767"><ele>210.0</ele><time>2026-03-20T16:58:03.616Z</time></trkpt><trkpt lat="45.5105567" lon="10.4780517"><ele>210.0</ele><time>2026-03-20T16:58:04.616Z</time></trkpt><trkpt lat="45.5104633" lon="10.47793"><ele>210.0</ele><time>2026-03-20T16:58:05.616Z</time></trkpt><trkpt lat="45.510365" lon="10.4778133"><ele>209.25</ele><time>2026-03-20T16:58:06.617Z</time></trkpt><trkpt lat="45.51027" lon="10.4776683"><ele>208.5</ele><time>2026-03-20T16:58:07.616Z</time></trkpt><trkpt lat="45.5101783" lon="10.4775067"><ele>207.75</ele><time>2026-03-20T16:58:08.616Z</time></trkpt><trkpt lat="45.51009" lon="10.4773567"><ele>207.0</ele><time>2026-03-20T16:58:09.616Z</time></trkpt><trkpt lat="45.5099967" lon="10.4772117"><ele>206.0</ele><time>2026-03-20T16:58:10.616Z</time></trkpt><trkpt lat="45.5098883" lon="10.477085"><ele>205.0</ele><time>2026-03-20T16:58:11.617Z</time></trkpt><trkpt lat="45.5097767" lon="10.4769683"><ele>204.0</ele><time>2026-03-20T16:58:12.616Z</time></trkpt><trkpt lat="45.5096383" lon="10.476865"><ele>203.0</ele><time>2026-03-20T16:58:13.616Z</time></trkpt><trkpt lat="45.5095083" lon="10.4767617"><ele>202.66666666666669</ele><time>2026-03-20T16:58:14.616Z</time></trkpt><trkpt lat="45.50937" lon="10.4766817"><ele>202.33333333333331</ele><time>2026-03-20T16:58:15.616Z</time></trkpt><trkpt lat="45.5092083" lon="10.4766133"><ele>202.0</ele><time>2026-03-20T16:58:16.617Z</time></trkpt><trkpt lat="45.5090617" lon="10.476575"><ele>202.0</ele><time>2026-03-20T16:58:17.616Z</time></trkpt><trkpt lat="45.508885" lon="10.47655"><ele>202.0</ele><time>2026-03-20T16:58:18.616Z</time></trkpt><trkpt lat="45.508715" lon="10.4765183"><ele>202.0</ele><time>2026-03-20T16:58:19.616Z</time></trkpt><trkpt lat="45.50855" lon="10.4764867"><ele>201.33333333333331</ele><time>2026-03-20T16:58:20.616Z</time></trkpt><trkpt lat="45.5083883" lon="10.4764483"><ele>200.66666666666669</ele><time>2026-03-20T16:58:21.616Z</time></trkpt><trkpt lat="45.50823" lon="10.4764"><ele>200.0</ele><time>2026-03-20T16:58:22.616Z</time></trkpt><trkpt lat="45.5080967" lon="10.4763317"><ele>200.66666666666669</ele><time>2026-03-20T16:58:23.616Z</time></trkpt><trkpt lat="45.5079617" lon="10.4762467"><ele>201.33333333333331</ele><time>2026-03-20T16:58:24.616Z</time></trkpt><trkpt lat="45.50782" lon="10.47617"><ele>202.0</ele><time>2026-03-20T16:58:25.617Z</time></trkpt><trkpt lat="45.5076783" lon="10.4760967"><ele>200.0</ele><time>2026-03-20T16:58:26.616Z</time></trkpt><trkpt lat="45.5075417" lon="10.47598"><ele>198.0</ele><time>2026-03-20T16:58:27.616Z</time></trkpt><trkpt lat="45.5074083" lon="10.4758417"><ele>196.0</ele><time>2026-03-20T16:58:28.617Z</time></trkpt><trkpt lat="45.50727" lon="10.4756983"><ele>196.0</ele><time>2026-03-20T16:58:29.616Z</time></trkpt><trkpt lat="45.507125" lon="10.4755567"><ele>196.0</ele><time>2026-03-20T16:58:30.617Z</time></trkpt><trkpt lat="45.5069967" lon="10.4754483"><ele>196.0</ele><time>2026-03-20T16:58:31.616Z</time></trkpt><trkpt lat="45.5068683" lon="10.4753567"><ele>195.60000000000002</ele><time>2026-03-20T16:58:32.616Z</time></trkpt><trkpt lat="45.506755" lon="10.4752867"><ele>195.2</ele><time>2026-03-20T16:58:33.616Z</time></trkpt><trkpt lat="45.5066533" lon="10.4752233"><ele>194.8</ele><time>2026-03-20T16:58:34.616Z</time></trkpt><trkpt lat="45.5065633" lon="10.4751467"><ele>194.39999999999998</ele><time>2026-03-20T16:58:35.616Z</time></trkpt><trkpt lat="45.5064917" lon="10.4750833"><ele>194.0</ele><time>2026-03-20T16:58:36.616Z</time></trkpt><trkpt lat="45.5064283" lon="10.475025"><ele>194.00000000000003</ele><time>2026-03-20T16:58:37.616Z</time></trkpt><trkpt lat="45.5063733" lon="10.47498"><ele>194.0</ele><time>2026-03-20T16:58:38.616Z</time></trkpt><trkpt lat="45.5063033" lon="10.4749"><ele>194.0</ele><time>2026-03-20T16:58:40.616Z</time></trkpt><trkpt lat="45.5062383" lon="10.4748317"><ele>194.0</ele><time>2026-03-20T16:58:43.616Z</time></trkpt><trkpt lat="45.5061783" lon="10.4747883"><ele>194.00000000000003</ele><time>2026-03-20T16:58:44.616Z</time></trkpt><trkpt lat="45.5061117" lon="10.4747233"><ele>194.0</ele><time>2026-03-20T16:58:45.616Z</time></trkpt><trkpt lat="45.5060333" lon="10.4746383"><ele>194.0</ele><time>2026-03-20T16:58:46.616Z</time></trkpt><trkpt lat="45.5059533" lon="10.47455"><ele>194.0</ele><time>2026-03-20T16:58:47.617Z</time></trkpt><trkpt lat="45.5058867" lon="10.4744367"><ele>194.0</ele><time>2026-03-20T16:58:48.616Z</time></trkpt><trkpt lat="45.50582" lon="10.4742967"><ele>194.0</ele><time>2026-03-20T16:58:49.616Z</time></trkpt><trkpt lat="45.50578" lon="10.4741367"><ele>194.0</ele><time>2026-03-20T16:58:50.616Z</time></trkpt><trkpt lat="45.5057517" lon="10.4739867"><ele>194.0</ele><time>2026-03-20T16:58:51.616Z</time></trkpt><trkpt lat="45.5057383" lon="10.4738217"><ele>194.0</ele><time>2026-03-20T16:58:52.616Z</time></trkpt><trkpt lat="45.5057233" lon="10.4736617"><ele>194.0</ele><time>2026-03-20T16:58:53.616Z</time></trkpt><trkpt lat="45.5056983" lon="10.4734917"><ele>194.0</ele><time>2026-03-20T16:58:54.616Z</time></trkpt><trkpt lat="45.50567" lon="10.4733417"><ele>194.00000000000003</ele><time>2026-03-20T16:58:55.616Z</time></trkpt><trkpt lat="45.5056417" lon="10.4732383"><ele>194.0</ele><time>2026-03-20T16:58:56.616Z</time></trkpt><trkpt lat="45.5056017" lon="10.4731517"><ele>194.0</ele><time>2026-03-20T16:58:57.616Z</time></trkpt><trkpt lat="45.5055233" lon="10.4730383"><ele>194.0</ele><time>2026-03-20T16:58:59.616Z</time></trkpt><trkpt lat="45.505455" lon="10.472995"><ele>194.00000000000003</ele><time>2026-03-20T16:59:00.616Z</time></trkpt><trkpt lat="45.505385" lon="10.47299"><ele>194.0</ele><time>2026-03-20T16:59:01.617Z</time></trkpt><trkpt lat="45.5052683" lon="10.4730833"><ele>194.2</ele><time>2026-03-20T16:59:03.616Z</time></trkpt><trkpt lat="45.5052033" lon="10.473185"><ele>194.39999999999998</ele><time>2026-03-20T16:59:04.616Z</time></trkpt><trkpt lat="45.5051433" lon="10.4732217"><ele>194.6</ele><time>2026-03-20T16:59:05.616Z</time></trkpt><trkpt lat="45.5050817" lon="10.473335"><ele>194.8</ele><time>2026-03-20T16:59:06.616Z</time></trkpt><trkpt lat="45.505" lon="10.47347"><ele>195.0</ele><time>2026-03-20T16:59:07.616Z</time></trkpt><trkpt lat="45.5049133" lon="10.47358"><ele>195.0</ele><time>2026-03-20T16:59:08.616Z</time></trkpt><trkpt lat="45.5048183" lon="10.4736833"><ele>195.0</ele><time>2026-03-20T16:59:09.616Z</time></trkpt><trkpt lat="45.5047183" lon="10.47376"><ele>195.0</ele><time>2026-03-20T16:59:10.616Z</time></trkpt><trkpt lat="45.5046133" lon="10.47383"><ele>195.0</ele><time>2026-03-20T16:59:11.616Z</time></trkpt><trkpt lat="45.504495" lon="10.4739117"><ele>197.5</ele><time>2026-03-20T16:59:12.616Z</time></trkpt><trkpt lat="45.5043767" lon="10.4739583"><ele>200.0</ele><time>2026-03-20T16:59:13.616Z</time></trkpt><trkpt lat="45.5042617" lon="10.4739867"><ele>202.5</ele><time>2026-03-20T16:59:14.616Z</time></trkpt><trkpt lat="45.504135" lon="10.4739983"><ele>205.0</ele><time>2026-03-20T16:59:15.616Z</time></trkpt><trkpt lat="45.504" lon="10.474"><ele>205.0</ele><time>2026-03-20T16:59:16.616Z</time></trkpt><trkpt lat="45.5038683" lon="10.4740117"><ele>205.0</ele><time>2026-03-20T16:59:17.616Z</time></trkpt><trkpt lat="45.5037367" lon="10.4740133"><ele>205.0</ele><time>2026-03-20T16:59:18.616Z</time></trkpt><trkpt lat="45.5036067" lon="10.4740083"><ele>205.0</ele><time>2026-03-20T16:59:19.616Z</time></trkpt><trkpt lat="45.5034833" lon="10.4740267"><ele>206.25</ele><time>2026-03-20T16:59:20.616Z</time></trkpt><trkpt lat="45.503365" lon="10.4740783"><ele>207.5</ele><time>2026-03-20T16:59:21.616Z</time></trkpt><trkpt lat="45.5032417" lon="10.4741583"><ele>208.75</ele><time>2026-03-20T16:59:22.616Z</time></trkpt><trkpt lat="45.5030983" lon="10.4742433"><ele>210.0</ele><time>2026-03-20T16:59:23.616Z</time></trkpt><trkpt lat="45.5029767" lon="10.4743433"><ele>209.75</ele><time>2026-03-20T16:59:24.616Z</time></trkpt><trkpt lat="45.5028633" lon="10.4744417"><ele>209.5</ele><time>2026-03-20T16:59:25.616Z</time></trkpt><trkpt lat="45.5027467" lon="10.47453"><ele>209.25</ele><time>2026-03-20T16:59:26.616Z</time></trkpt><trkpt lat="45.50265" lon="10.4745983"><ele>209.0</ele><time>2026-03-20T16:59:27.616Z</time></trkpt><trkpt lat="45.502545" lon="10.47464"><ele>209.0</ele><time>2026-03-20T16:59:28.616Z</time></trkpt><trkpt lat="45.5024417" lon="10.4746433"><ele>209.0</ele><time>2026-03-20T16:59:29.616Z</time></trkpt><trkpt lat="45.5023233" lon="10.47463"><ele>209.0</ele><time>2026-03-20T16:59:30.616Z</time></trkpt><trkpt lat="45.502205" lon="10.47459"><ele>209.0</ele><time>2026-03-20T16:59:31.616Z</time></trkpt><trkpt lat="45.50208" lon="10.4745217"><ele>209.25</ele><time>2026-03-20T16:59:32.616Z</time></trkpt><trkpt lat="45.5019567" lon="10.47445"><ele>209.5</ele><time>2026-03-20T16:59:33.616Z</time></trkpt><trkpt lat="45.5018433" lon="10.4743617"><ele>209.75</ele><time>2026-03-20T16:59:34.616Z</time></trkpt><trkpt lat="45.5017483" lon="10.47427"><ele>210.0</ele><time>2026-03-20T16:59:35.616Z</time></trkpt><trkpt lat="45.5016583" lon="10.47419"><ele>210.0</ele><time>2026-03-20T16:59:36.616Z</time></trkpt><trkpt lat="45.501575" lon="10.47412"><ele>210.0</ele><time>2026-03-20T16:59:37.616Z</time></trkpt><trkpt lat="45.5015" lon="10.474055"><ele>210.0</ele><time>2026-03-20T16:59:38.617Z</time></trkpt><trkpt lat="45.5014283" lon="10.4740017"><ele>210.0</ele><time>2026-03-20T16:59:39.616Z</time></trkpt><trkpt lat="45.5013483" lon="10.4739617"><ele>210.0</ele><time>2026-03-20T16:59:40.616Z</time></trkpt><trkpt lat="45.501265" lon="10.4739433"><ele>210.0</ele><time>2026-03-20T16:59:41.617Z</time></trkpt><trkpt lat="45.501195" lon="10.4739367"><ele>209.83333333333334</ele><time>2026-03-20T16:59:42.617Z</time></trkpt><trkpt lat="45.5011217" lon="10.4739317"><ele>209.66666666666669</ele><time>2026-03-20T16:59:43.616Z</time></trkpt><trkpt lat="45.50106" lon="10.4738983"><ele>209.5</ele><time>2026-03-20T16:59:44.616Z</time></trkpt><trkpt lat="45.5009683" lon="10.4738083"><ele>209.33333333333334</ele><time>2026-03-20T16:59:46.616Z</time></trkpt><trkpt lat="45.500925" lon="10.4737233"><ele>209.16666666666669</ele><time>2026-03-20T16:59:47.616Z</time></trkpt><trkpt lat="45.50088" lon="10.47362"><ele>209.0</ele><time>2026-03-20T16:59:48.616Z</time></trkpt><trkpt lat="45.5008367" lon="10.473535"><ele>209.00000000000003</ele><time>2026-03-20T16:59:49.616Z</time></trkpt><trkpt lat="45.5007983" lon="10.4734133"><ele>209.0</ele><time>2026-03-20T16:59:50.616Z</time></trkpt><trkpt lat="45.5007617" lon="10.4732933"><ele>209.0</ele><time>2026-03-20T16:59:51.616Z</time></trkpt><trkpt lat="45.5007283" lon="10.4731717"><ele>209.0</ele><time>2026-03-20T16:59:52.617Z</time></trkpt><trkpt lat="45.5006967" lon="10.473055"><ele>209.00000000000003</ele><time>2026-03-20T16:59:53.616Z</time></trkpt><trkpt lat="45.5006667" lon="10.472975"><ele>209.0</ele><time>2026-03-20T16:59:54.616Z</time></trkpt><trkpt lat="45.5005567" lon="10.4728917"><ele>208.25</ele><time>2026-03-20T16:59:56.616Z</time></trkpt><trkpt lat="45.5004283" lon="10.4728983"><ele>207.5</ele><time>2026-03-20T16:59:57.616Z</time></trkpt><trkpt lat="45.50031" lon="10.4728983"><ele>206.75</ele><time>2026-03-20T16:59:58.617Z</time></trkpt><trkpt lat="45.5001917" lon="10.472885"><ele>206.0</ele><time>2026-03-20T16:59:59.616Z</time></trkpt><trkpt lat="45.5000783" lon="10.472865"><ele>205.20000000000002</ele><time>2026-03-20T17:00:00.616Z</time></trkpt><trkpt lat="45.4999733" lon="10.47283"><ele>204.4</ele><time>2026-03-20T17:00:01.616Z</time></trkpt><trkpt lat="45.4998583" lon="10.4728083"><ele>203.6</ele><time>2026-03-20T17:00:02.617Z</time></trkpt><trkpt lat="45.4997467" lon="10.472775"><ele>202.8</ele><time>2026-03-20T17:00:03.616Z</time></trkpt><trkpt lat="45.4996433" lon="10.4727383"><ele>202.0</ele><time>2026-03-20T17:00:04.616Z</time></trkpt><trkpt lat="45.499535" lon="10.4727033"><ele>201.39999999999998</ele><time>2026-03-20T17:00:05.616Z</time></trkpt><trkpt lat="45.49943" lon="10.4726717"><ele>200.79999999999998</ele><time>2026-03-20T17:00:06.616Z</time></trkpt><trkpt lat="45.499335" lon="10.4726433"><ele>200.2</ele><time>2026-03-20T17:00:07.616Z</time></trkpt><trkpt lat="45.4992417" lon="10.472615"><ele>199.6</ele><time>2026-03-20T17:00:08.616Z</time></trkpt><trkpt lat="45.4991667" lon="10.4725883"><ele>199.0</ele><time>2026-03-20T17:00:09.616Z</time></trkpt><trkpt lat="45.4990833" lon="10.4725483"><ele>199.0</ele><time>2026-03-20T17:00:11.616Z</time></trkpt><trkpt lat="45.4990083" lon="10.47257"><ele>199.0</ele><time>2026-03-20T17:00:14.616Z</time></trkpt><trkpt lat="45.49901" lon="10.472735"><ele>199.0</ele><time>2026-03-20T17:00:17.616Z</time></trkpt><trkpt lat="45.4990183" lon="10.472835"><ele>199.0</ele><time>2026-03-20T17:00:18.616Z</time></trkpt><trkpt lat="45.4990133" lon="10.47297"><ele>199.0</ele><time>2026-03-20T17:00:19.616Z</time></trkpt><trkpt lat="45.4990067" lon="10.4731167"><ele>199.2</ele><time>2026-03-20T17:00:20.616Z</time></trkpt><trkpt lat="45.499005" lon="10.4732567"><ele>199.39999999999998</ele><time>2026-03-20T17:00:21.617Z</time></trkpt><trkpt lat="45.499" lon="10.4734"><ele>199.6</ele><time>2026-03-20T17:00:22.616Z</time></trkpt><trkpt lat="45.4989967" lon="10.4735667"><ele>199.8</ele><time>2026-03-20T17:00:23.616Z</time></trkpt><trkpt lat="45.4989867" lon="10.4737233"><ele>200.0</ele><time>2026-03-20T17:00:24.616Z</time></trkpt><trkpt lat="45.4989817" lon="10.473905"><ele>200.5</ele><time>2026-03-20T17:00:25.616Z</time></trkpt><trkpt lat="45.4989733" lon="10.47409"><ele>201.0</ele><time>2026-03-20T17:00:26.616Z</time></trkpt><trkpt lat="45.4989583" lon="10.4742717"><ele>201.5</ele><time>2026-03-20T17:00:27.616Z</time></trkpt><trkpt lat="45.4989533" lon="10.4744567"><ele>202.0</ele><time>2026-03-20T17:00:28.616Z</time></trkpt><trkpt lat="45.4989417" lon="10.4746417"><ele>202.5</ele><time>2026-03-20T17:00:29.616Z</time></trkpt><trkpt lat="45.4989383" lon="10.47483"><ele>203.0</ele><time>2026-03-20T17:00:30.617Z</time></trkpt><trkpt lat="45.4989283" lon="10.4750233"><ele>203.5</ele><time>2026-03-20T17:00:31.616Z</time></trkpt><trkpt lat="45.4989217" lon="10.4752033"><ele>204.0</ele><time>2026-03-20T17:00:32.616Z</time></trkpt><trkpt lat="45.49892" lon="10.4753533"><ele>205.2</ele><time>2026-03-20T17:00:33.617Z</time></trkpt><trkpt lat="45.4989183" lon="10.4754917"><ele>206.39999999999998</ele><time>2026-03-20T17:00:34.616Z</time></trkpt><trkpt lat="45.49891" lon="10.4756367"><ele>207.6</ele><time>2026-03-20T17:00:35.616Z</time></trkpt><trkpt lat="45.4989033" lon="10.4757783"><ele>208.8</ele><time>2026-03-20T17:00:36.616Z</time></trkpt><trkpt lat="45.4988983" lon="10.47592"><ele>210.0</ele><time>2026-03-20T17:00:37.616Z</time></trkpt><trkpt lat="45.498895" lon="10.4760567"><ele>210.0</ele><time>2026-03-20T17:00:38.616Z</time></trkpt><trkpt lat="45.4988883" lon="10.4761817"><ele>210.0</ele><time>2026-03-20T17:00:39.616Z</time></trkpt><trkpt lat="45.498875" lon="10.4763133"><ele>210.0</ele><time>2026-03-20T17:00:40.616Z</time></trkpt><trkpt lat="45.4988533" lon="10.4764417"><ele>210.0</ele><time>2026-03-20T17:00:41.616Z</time></trkpt><trkpt lat="45.4988283" lon="10.4765567"><ele>210.0</ele><time>2026-03-20T17:00:42.616Z</time></trkpt><trkpt lat="45.4988033" lon="10.4766783"><ele>210.0</ele><time>2026-03-20T17:00:43.617Z</time></trkpt><trkpt lat="45.4987783" lon="10.4768167"><ele>210.8</ele><time>2026-03-20T17:00:44.616Z</time></trkpt><trkpt lat="45.4987533" lon="10.4769667"><ele>211.6</ele><time>2026-03-20T17:00:45.616Z</time></trkpt><trkpt lat="45.4987233" lon="10.4771167"><ele>212.39999999999998</ele><time>2026-03-20T17:00:46.616Z</time></trkpt><trkpt lat="45.49869" lon="10.4772667"><ele>213.2</ele><time>2026-03-20T17:00:47.616Z</time></trkpt><trkpt lat="45.49866" lon="10.477425"><ele>214.0</ele><time>2026-03-20T17:00:48.616Z</time></trkpt><trkpt lat="45.4986317" lon="10.47757"><ele>214.6</ele><time>2026-03-20T17:00:49.616Z</time></trkpt><trkpt lat="45.4985917" lon="10.4777283"><ele>215.2</ele><time>2026-03-20T17:00:50.617Z</time></trkpt><trkpt lat="45.49856" lon="10.4778633"><ele>215.79999999999998</ele><time>2026-03-20T17:00:51.617Z</time></trkpt><trkpt lat="45.4985233" lon="10.4779767"><ele>216.39999999999998</ele><time>2026-03-20T17:00:52.616Z</time></trkpt><trkpt lat="45.498485" lon="10.4780767"><ele>217.0</ele><time>2026-03-20T17:00:53.616Z</time></trkpt><trkpt lat="45.4984417" lon="10.47816"><ele>218.16666666666666</ele><time>2026-03-20T17:00:54.616Z</time></trkpt><trkpt lat="45.4983767" lon="10.4782067"><ele>219.33333333333331</ele><time>2026-03-20T17:00:55.617Z</time></trkpt><trkpt lat="45.498305" lon="10.47825"><ele>220.5</ele><time>2026-03-20T17:00:56.617Z</time></trkpt><trkpt lat="45.4982317" lon="10.47829"><ele>221.66666666666669</ele><time>2026-03-20T17:00:57.616Z</time></trkpt><trkpt lat="45.49815" lon="10.4783217"><ele>222.83333333333334</ele><time>2026-03-20T17:00:58.617Z</time></trkpt><trkpt lat="45.4980583" lon="10.4783567"><ele>224.0</ele><time>2026-03-20T17:00:59.617Z</time></trkpt><trkpt lat="45.4979617" lon="10.4783967"><ele>223.79999999999998</ele><time>2026-03-20T17:01:00.617Z</time></trkpt><trkpt lat="45.4978583" lon="10.4784383"><ele>223.59999999999997</ele><time>2026-03-20T17:01:01.616Z</time></trkpt><trkpt lat="45.4977533" lon="10.4784617"><ele>223.4</ele><time>2026-03-20T17:01:02.617Z</time></trkpt><trkpt lat="45.4976683" lon="10.47845"><ele>223.2</ele><time>2026-03-20T17:01:03.616Z</time></trkpt><trkpt lat="45.4975783" lon="10.4784267"><ele>223.0</ele><time>2026-03-20T17:01:04.616Z</time></trkpt><trkpt lat="45.497485" lon="10.4784033"><ele>223.0</ele><time>2026-03-20T17:01:05.616Z</time></trkpt><trkpt lat="45.4973833" lon="10.47837"><ele>223.0</ele><time>2026-03-20T17:01:06.616Z</time></trkpt><trkpt lat="45.4972883" lon="10.4783333"><ele>223.0</ele><time>2026-03-20T17:01:07.617Z</time></trkpt><trkpt lat="45.4971733" lon="10.4782867"><ele>223.0</ele><time>2026-03-20T17:01:08.616Z</time></trkpt><trkpt lat="45.4970633" lon="10.4782233"><ele>223.0</ele><time>2026-03-20T17:01:09.616Z</time></trkpt><trkpt lat="45.4969633" lon="10.4781717"><ele>223.2</ele><time>2026-03-20T17:01:10.616Z</time></trkpt><trkpt lat="45.49689" lon="10.478135"><ele>223.4</ele><time>2026-03-20T17:01:11.616Z</time></trkpt><trkpt lat="45.49682" lon="10.4780967"><ele>223.59999999999997</ele><time>2026-03-20T17:01:12.616Z</time></trkpt><trkpt lat="45.4967217" lon="10.4780667"><ele>223.79999999999998</ele><time>2026-03-20T17:01:13.616Z</time></trkpt><trkpt lat="45.496625" lon="10.47805"><ele>224.0</ele><time>2026-03-20T17:01:14.617Z</time></trkpt><trkpt lat="45.49652" lon="10.4780433"><ele>224.0</ele><time>2026-03-20T17:01:15.616Z</time></trkpt><trkpt lat="45.4964183" lon="10.478035"><ele>223.99999999999997</ele><time>2026-03-20T17:01:16.617Z</time></trkpt><trkpt lat="45.4963433" lon="10.4780283"><ele>223.99999999999997</ele><time>2026-03-20T17:01:17.616Z</time></trkpt><trkpt lat="45.496265" lon="10.4780333"><ele>224.0</ele><time>2026-03-20T17:01:18.616Z</time></trkpt><trkpt lat="45.496195" lon="10.4780583"><ele>224.0</ele><time>2026-03-20T17:01:19.616Z</time></trkpt><trkpt lat="45.49608" lon="10.478145"><ele>223.6</ele><time>2026-03-20T17:01:21.616Z</time></trkpt><trkpt lat="45.496025" lon="10.4782033"><ele>223.2</ele><time>2026-03-20T17:01:22.616Z</time></trkpt><trkpt lat="45.4959867" lon="10.4782833"><ele>222.79999999999998</ele><time>2026-03-20T17:01:23.616Z</time></trkpt><trkpt lat="45.49595" lon="10.4784417"><ele>222.39999999999998</ele><time>2026-03-20T17:01:25.616Z</time></trkpt><trkpt lat="45.49595" lon="10.4785683"><ele>222.0</ele><time>2026-03-20T17:01:26.616Z</time></trkpt><trkpt lat="45.4959433" lon="10.4787233"><ele>223.2</ele><time>2026-03-20T17:01:27.616Z</time></trkpt><trkpt lat="45.4959283" lon="10.47885"><ele>224.39999999999998</ele><time>2026-03-20T17:01:28.616Z</time></trkpt><trkpt lat="45.4958933" lon="10.4789917"><ele>225.60000000000002</ele><time>2026-03-20T17:01:29.616Z</time></trkpt><trkpt lat="45.495855" lon="10.4791233"><ele>226.8</ele><time>2026-03-20T17:01:30.616Z</time></trkpt><trkpt lat="45.49581" lon="10.4792467"><ele>228.0</ele><time>2026-03-20T17:01:31.616Z</time></trkpt><trkpt lat="45.49575" lon="10.4793683"><ele>228.0</ele><time>2026-03-20T17:01:32.616Z</time></trkpt><trkpt lat="45.49569" lon="10.4794783"><ele>228.0</ele><time>2026-03-20T17:01:33.617Z</time></trkpt><trkpt lat="45.49563" lon="10.4796"><ele>228.0</ele><time>2026-03-20T17:01:34.616Z</time></trkpt><trkpt lat="45.495565" lon="10.4797167"><ele>228.0</ele><time>2026-03-20T17:01:35.617Z</time></trkpt><trkpt lat="45.4954917" lon="10.479825"><ele>228.0</ele><time>2026-03-20T17:01:36.616Z</time></trkpt><trkpt lat="45.4954033" lon="10.4798817"><ele>229.83333333333334</ele><time>2026-03-20T17:01:37.616Z</time></trkpt><trkpt lat="45.49532" lon="10.4799383"><ele>231.66666666666669</ele><time>2026-03-20T17:01:38.616Z</time></trkpt><trkpt lat="45.49525" lon="10.4800133"><ele>233.5</ele><time>2026-03-20T17:01:39.616Z</time></trkpt><trkpt lat="45.49519" lon="10.4800983"><ele>235.33333333333334</ele><time>2026-03-20T17:01:40.616Z</time></trkpt><trkpt lat="45.4951367" lon="10.48018"><ele>237.16666666666669</ele><time>2026-03-20T17:01:41.616Z</time></trkpt><trkpt lat="45.4950833" lon="10.48028"><ele>239.0</ele><time>2026-03-20T17:01:42.616Z</time></trkpt><trkpt lat="45.4950367" lon="10.4803883"><ele>241.16666666666669</ele><time>2026-03-20T17:01:43.616Z</time></trkpt><trkpt lat="45.4949933" lon="10.4804917"><ele>243.33333333333334</ele><time>2026-03-20T17:01:44.617Z</time></trkpt><trkpt lat="45.4949417" lon="10.4805817"><ele>245.5</ele><time>2026-03-20T17:01:45.616Z</time></trkpt><trkpt lat="45.49489" lon="10.4806633"><ele>247.66666666666669</ele><time>2026-03-20T17:01:46.616Z</time></trkpt><trkpt lat="45.4948333" lon="10.4807333"><ele>249.83333333333334</ele><time>2026-03-20T17:01:47.616Z</time></trkpt><trkpt lat="45.49476" lon="10.4807617"><ele>252.0</ele><time>2026-03-20T17:01:48.616Z</time></trkpt><trkpt lat="45.4946817" lon="10.4807783"><ele>252.0</ele><time>2026-03-20T17:01:49.616Z</time></trkpt><trkpt lat="45.4945733" lon="10.48075"><ele>252.0</ele><time>2026-03-20T17:01:50.616Z</time></trkpt><trkpt lat="45.49447" lon="10.4807133"><ele>252.0</ele><time>2026-03-20T17:01:51.616Z</time></trkpt><trkpt lat="45.4943633" lon="10.4806617"><ele>252.0</ele><time>2026-03-20T17:01:52.616Z</time></trkpt><trkpt lat="45.4942667" lon="10.4806183"><ele>252.0</ele><time>2026-03-20T17:01:53.617Z</time></trkpt><trkpt lat="45.49419" lon="10.4805883"><ele>252.0</ele><time>2026-03-20T17:01:54.616Z</time></trkpt><trkpt lat="45.494115" lon="10.48057"><ele>252.0</ele><time>2026-03-20T17:01:55.616Z</time></trkpt><trkpt lat="45.4940117" lon="10.480565"><ele>252.0</ele><time>2026-03-20T17:01:57.616Z</time></trkpt><trkpt lat="45.4939417" lon="10.4806067"><ele>252.0</ele><time>2026-03-20T17:02:01.616Z</time></trkpt><trkpt lat="45.49388" lon="10.480685"><ele>252.0</ele><time>2026-03-20T17:02:04.616Z</time></trkpt><trkpt lat="45.4938317" lon="10.480785"><ele>252.0</ele><time>2026-03-20T17:02:06.616Z</time></trkpt><trkpt lat="45.4937833" lon="10.48086"><ele>251.83333333333334</ele><time>2026-03-20T17:02:08.616Z</time></trkpt><trkpt lat="45.4937383" lon="10.4809367"><ele>251.66666666666669</ele><time>2026-03-20T17:02:10.616Z</time></trkpt><trkpt lat="45.4937433" lon="10.4810433"><ele>251.5</ele><time>2026-03-20T17:02:17.616Z</time></trkpt><trkpt lat="45.493715" lon="10.48113"><ele>251.33333333333334</ele><time>2026-03-20T17:02:19.616Z</time></trkpt><trkpt lat="45.4936417" lon="10.4812033"><ele>251.16666666666669</ele><time>2026-03-20T17:02:22.616Z</time></trkpt><trkpt lat="45.493595" lon="10.4812933"><ele>251.0</ele><time>2026-03-20T17:02:26.616Z</time></trkpt><trkpt lat="45.4935533" lon="10.4814533"><ele>251.0</ele><time>2026-03-20T17:02:29.616Z</time></trkpt><trkpt lat="45.4935367" lon="10.4816217"><ele>251.00000000000003</ele><time>2026-03-20T17:02:31.616Z</time></trkpt><trkpt lat="45.4935383" lon="10.4817767"><ele>251.00000000000003</ele><time>2026-03-20T17:02:33.616Z</time></trkpt><trkpt lat="45.4935233" lon="10.4819383"><ele>251.0</ele><time>2026-03-20T17:02:35.616Z</time></trkpt><trkpt lat="45.4935017" lon="10.4820683"><ele>251.0</ele><time>2026-03-20T17:02:36.616Z</time></trkpt><trkpt lat="45.49349" lon="10.482175"><ele>251.00000000000003</ele><time>2026-03-20T17:02:37.616Z</time></trkpt><trkpt lat="45.4934767" lon="10.4822783"><ele>251.0</ele><time>2026-03-20T17:02:38.616Z</time></trkpt><trkpt lat="45.493465" lon="10.4823883"><ele>251.0</ele><time>2026-03-20T17:02:39.617Z</time></trkpt><trkpt lat="45.4934517" lon="10.4825067"><ele>251.0</ele><time>2026-03-20T17:02:40.616Z</time></trkpt><trkpt lat="45.49345" lon="10.4826267"><ele>251.00000000000003</ele><time>2026-03-20T17:02:41.616Z</time></trkpt><trkpt lat="45.4935" lon="10.4826817"><ele>251.0</ele><time>2026-03-20T17:02:42.616Z</time></trkpt><trkpt lat="45.4934917" lon="10.4828"><ele>251.00000000000003</ele><time>2026-03-20T17:02:43.617Z</time></trkpt><trkpt lat="45.4935067" lon="10.4828967"><ele>251.0</ele><time>2026-03-20T17:02:44.616Z</time></trkpt><trkpt lat="45.49352" lon="10.4830067"><ele>251.0</ele><time>2026-03-20T17:02:45.616Z</time></trkpt><trkpt lat="45.4935133" lon="10.4831433"><ele>251.0</ele><time>2026-03-20T17:02:46.616Z</time></trkpt><trkpt lat="45.4935183" lon="10.4832633"><ele>251.00000000000003</ele><time>2026-03-20T17:02:47.617Z</time></trkpt><trkpt lat="45.4935333" lon="10.4833683"><ele>251.0</ele><time>2026-03-20T17:02:48.616Z</time></trkpt><trkpt lat="45.4935383" lon="10.4834833"><ele>251.33333333333334</ele><time>2026-03-20T17:02:49.616Z</time></trkpt><trkpt lat="45.4935283" lon="10.48361"><ele>251.66666666666669</ele><time>2026-03-20T17:02:50.616Z</time></trkpt><trkpt lat="45.4935283" lon="10.4837267"><ele>252.0</ele><time>2026-03-20T17:02:51.616Z</time></trkpt><trkpt lat="45.4935283" lon="10.4838383"><ele>252.33333333333331</ele><time>2026-03-20T17:02:52.616Z</time></trkpt><trkpt lat="45.4935317" lon="10.48394"><ele>252.66666666666666</ele><time>2026-03-20T17:02:53.616Z</time></trkpt><trkpt lat="45.4935367" lon="10.4840383"><ele>253.0</ele><time>2026-03-20T17:02:54.616Z</time></trkpt><trkpt lat="45.493545" lon="10.4841483"><ele>253.49999999999997</ele><time>2026-03-20T17:02:55.617Z</time></trkpt><trkpt lat="45.4935533" lon="10.4842617"><ele>254.0</ele><time>2026-03-20T17:02:56.617Z</time></trkpt><trkpt lat="45.4935517" lon="10.484365"><ele>254.5</ele><time>2026-03-20T17:02:57.616Z</time></trkpt><trkpt lat="45.4935533" lon="10.4845183"><ele>255.0</ele><time>2026-03-20T17:02:59.616Z</time></trkpt><trkpt lat="45.4935317" lon="10.484635"><ele>255.49999999999997</ele><time>2026-03-20T17:03:01.616Z</time></trkpt><trkpt lat="45.49353" lon="10.4847383"><ele>256.0</ele><time>2026-03-20T17:03:03.616Z</time></trkpt><trkpt lat="45.4935333" lon="10.4848567"><ele>256.0</ele><time>2026-03-20T17:03:05.616Z</time></trkpt><trkpt lat="45.4935317" lon="10.48499"><ele>256.0</ele><time>2026-03-20T17:03:07.616Z</time></trkpt><trkpt lat="45.4935" lon="10.485155"><ele>256.0</ele><time>2026-03-20T17:03:09.616Z</time></trkpt><trkpt lat="45.4934883" lon="10.4853417"><ele>256.0</ele><time>2026-03-20T17:03:11.616Z</time></trkpt><trkpt lat="45.4934883" lon="10.485435"><ele>256.0</ele><time>2026-03-20T17:03:12.616Z</time></trkpt><trkpt lat="45.4934633" lon="10.485595"><ele>256.16666666666663</ele><time>2026-03-20T17:03:14.616Z</time></trkpt><trkpt lat="45.4934367" lon="10.4856833"><ele>256.3333333333333</ele><time>2026-03-20T17:03:15.616Z</time></trkpt><trkpt lat="45.4934" lon="10.4857717"><ele>256.5</ele><time>2026-03-20T17:03:16.616Z</time></trkpt><trkpt lat="45.49337" lon="10.4858617"><ele>256.6666666666667</ele><time>2026-03-20T17:03:17.616Z</time></trkpt><trkpt lat="45.4933433" lon="10.485945"><ele>256.83333333333337</ele><time>2026-03-20T17:03:18.616Z</time></trkpt><trkpt lat="45.4933117" lon="10.4860767"><ele>257.0</ele><time>2026-03-20T17:03:20.616Z</time></trkpt><trkpt lat="45.4933017" lon="10.4862083"><ele>257.0</ele><time>2026-03-20T17:03:22.616Z</time></trkpt><trkpt lat="45.4932933" lon="10.4863117"><ele>257.0</ele><time>2026-03-20T17:03:25.616Z</time></trkpt><trkpt lat="45.4932683" lon="10.4864083"><ele>257.0</ele><time>2026-03-20T17:03:28.617Z</time></trkpt><trkpt lat="45.4932133" lon="10.486345"><ele>257.0</ele><time>2026-03-20T17:03:31.616Z</time></trkpt><trkpt lat="45.4931733" lon="10.4862233"><ele>257.0</ele><time>2026-03-20T17:03:33.617Z</time></trkpt><trkpt lat="45.493145" lon="10.486105"><ele>257.0</ele><time>2026-03-20T17:03:35.617Z</time></trkpt><trkpt lat="45.4931667" lon="10.4859917"><ele>257.0</ele><time>2026-03-20T17:04:10.617Z</time></trkpt><trkpt lat="45.4931633" lon="10.485845"><ele>257.0</ele><time>2026-03-20T17:04:12.616Z</time></trkpt><trkpt lat="45.4931633" lon="10.4857067"><ele>257.0</ele><time>2026-03-20T17:04:14.616Z</time></trkpt><trkpt lat="45.493115" lon="10.4855317"><ele>257.0</ele><time>2026-03-20T17:04:16.616Z</time></trkpt><trkpt lat="45.4931017" lon="10.4854417"><ele>257.0</ele><time>2026-03-20T17:04:17.616Z</time></trkpt><trkpt lat="45.4930617" lon="10.4852733"><ele>256.8</ele><time>2026-03-20T17:04:19.616Z</time></trkpt><trkpt lat="45.4930417" lon="10.485105"><ele>256.6</ele><time>2026-03-20T17:04:21.616Z</time></trkpt><trkpt lat="45.4930367" lon="10.48492"><ele>256.40000000000003</ele><time>2026-03-20T17:04:23.616Z</time></trkpt><trkpt lat="45.493035" lon="10.4848283"><ele>256.2</ele><time>2026-03-20T17:04:24.616Z</time></trkpt><trkpt lat="45.493055" lon="10.4847283"><ele>256.0</ele><time>2026-03-20T17:04:25.616Z</time></trkpt><trkpt lat="45.4930817" lon="10.4846217"><ele>256.16666666666663</ele><time>2026-03-20T17:04:26.616Z</time></trkpt><trkpt lat="45.4931017" lon="10.48451"><ele>256.3333333333333</ele><time>2026-03-20T17:04:27.616Z</time></trkpt><trkpt lat="45.493115" lon="10.4844133"><ele>256.5</ele><time>2026-03-20T17:04:28.616Z</time></trkpt><trkpt lat="45.4931267" lon="10.4843217"><ele>256.6666666666667</ele><time>2026-03-20T17:04:29.617Z</time></trkpt><trkpt lat="45.493155" lon="10.484175"><ele>256.83333333333337</ele><time>2026-03-20T17:04:31.616Z</time></trkpt><trkpt lat="45.493125" lon="10.4840483"><ele>257.0</ele><time>2026-03-20T17:04:33.617Z</time></trkpt><trkpt lat="45.4931017" lon="10.48392"><ele>257.0</ele><time>2026-03-20T17:04:35.616Z</time></trkpt><trkpt lat="45.4930567" lon="10.4838483"><ele>257.0</ele><time>2026-03-20T17:04:36.616Z</time></trkpt><trkpt lat="45.49298" lon="10.483705"><ele>257.0</ele><time>2026-03-20T17:04:38.616Z</time></trkpt><trkpt lat="45.4929267" lon="10.4835533"><ele>257.0</ele><time>2026-03-20T17:04:40.616Z</time></trkpt><trkpt lat="45.492855" lon="10.48341"><ele>257.0</ele><time>2026-03-20T17:04:42.616Z</time></trkpt><trkpt lat="45.4927867" lon="10.48328"><ele>255.2</ele><time>2026-03-20T17:04:44.617Z</time></trkpt><trkpt lat="45.4927433" lon="10.4831483"><ele>253.39999999999998</ele><time>2026-03-20T17:04:46.616Z</time></trkpt><trkpt lat="45.4927033" lon="10.4830333"><ele>251.60000000000002</ele><time>2026-03-20T17:04:48.616Z</time></trkpt><trkpt lat="45.4927033" lon="10.48294"><ele>249.8</ele><time>2026-03-20T17:04:50.616Z</time></trkpt><trkpt lat="45.492645" lon="10.48287"><ele>248.0</ele><time>2026-03-20T17:04:51.616Z</time></trkpt><trkpt lat="45.4925367" lon="10.4828067"><ele>246.8</ele><time>2026-03-20T17:04:53.616Z</time></trkpt><trkpt lat="45.4924217" lon="10.48274"><ele>245.60000000000002</ele><time>2026-03-20T17:04:55.616Z</time></trkpt><trkpt lat="45.4923517" lon="10.4826333"><ele>244.39999999999998</ele><time>2026-03-20T17:04:57.616Z</time></trkpt><trkpt lat="45.4922983" lon="10.4824933"><ele>243.2</ele><time>2026-03-20T17:04:59.617Z</time></trkpt><trkpt lat="45.4922533" lon="10.4823833"><ele>242.0</ele><time>2026-03-20T17:05:01.616Z</time></trkpt><trkpt lat="45.4922317" lon="10.4822783"><ele>242.0</ele><time>2026-03-20T17:05:03.616Z</time></trkpt><trkpt lat="45.4922167" lon="10.4821617"><ele>241.99999999999997</ele><time>2026-03-20T17:05:05.616Z</time></trkpt><trkpt lat="45.4921683" lon="10.482085"><ele>242.0</ele><time>2026-03-20T17:05:07.616Z</time></trkpt><trkpt lat="45.4920917" lon="10.4820833"><ele>242.0</ele><time>2026-03-20T17:05:09.616Z</time></trkpt><trkpt lat="45.492025" lon="10.482095"><ele>241.99999999999997</ele><time>2026-03-20T17:05:11.617Z</time></trkpt><trkpt lat="45.4919567" lon="10.4820767"><ele>242.0</ele><time>2026-03-20T17:05:13.616Z</time></trkpt><trkpt lat="45.491895" lon="10.48203"><ele>242.0</ele><time>2026-03-20T17:05:15.616Z</time></trkpt><trkpt lat="45.4918467" lon="10.4819633"><ele>240.66666666666669</ele><time>2026-03-20T17:05:17.617Z</time></trkpt><trkpt lat="45.4917967" lon="10.4818733"><ele>239.33333333333334</ele><time>2026-03-20T17:05:20.616Z</time></trkpt><trkpt lat="45.4917233" lon="10.481835"><ele>238.0</ele><time>2026-03-20T17:05:26.616Z</time></trkpt><trkpt lat="45.4916917" lon="10.4817517"><ele>236.66666666666669</ele><time>2026-03-20T17:05:32.616Z</time></trkpt><trkpt lat="45.49171" lon="10.481625"><ele>235.33333333333334</ele><time>2026-03-20T17:05:34.616Z</time></trkpt><trkpt lat="45.49173" lon="10.4815333"><ele>234.0</ele><time>2026-03-20T17:05:35.616Z</time></trkpt><trkpt lat="45.49175" lon="10.4814217"><ele>234.0</ele><time>2026-03-20T17:05:37.616Z</time></trkpt><trkpt lat="45.49174" lon="10.4812767"><ele>233.99999999999997</ele><time>2026-03-20T17:05:47.617Z</time></trkpt><trkpt lat="45.4917417" lon="10.48118"><ele>233.99999999999997</ele><time>2026-03-20T17:05:48.616Z</time></trkpt><trkpt lat="45.4917317" lon="10.4810633"><ele>234.0</ele><time>2026-03-20T17:05:49.616Z</time></trkpt><trkpt lat="45.491715" lon="10.4809183"><ele>234.0</ele><time>2026-03-20T17:05:50.616Z</time></trkpt><trkpt lat="45.4917017" lon="10.4807767"><ele>233.5</ele><time>2026-03-20T17:05:51.617Z</time></trkpt><trkpt lat="45.491685" lon="10.4806233"><ele>233.0</ele><time>2026-03-20T17:05:52.616Z</time></trkpt><trkpt lat="45.4916833" lon="10.4804367"><ele>232.5</ele><time>2026-03-20T17:05:53.616Z</time></trkpt><trkpt lat="45.49168" lon="10.4802417"><ele>232.0</ele><time>2026-03-20T17:05:54.616Z</time></trkpt><trkpt lat="45.49166" lon="10.48006"><ele>232.0</ele><time>2026-03-20T17:05:55.616Z</time></trkpt><trkpt lat="45.4916417" lon="10.479915"><ele>232.0</ele><time>2026-03-20T17:05:56.616Z</time></trkpt><trkpt lat="45.491615" lon="10.4797533"><ele>232.0</ele><time>2026-03-20T17:05:57.616Z</time></trkpt><trkpt lat="45.4915867" lon="10.4795917"><ele>232.0</ele><time>2026-03-20T17:05:58.616Z</time></trkpt><trkpt lat="45.4915617" lon="10.47943"><ele>231.6</ele><time>2026-03-20T17:05:59.616Z</time></trkpt><trkpt lat="45.4915383" lon="10.47927"><ele>231.2</ele><time>2026-03-20T17:06:00.617Z</time></trkpt><trkpt lat="45.491525" lon="10.47912"><ele>230.8</ele><time>2026-03-20T17:06:01.617Z</time></trkpt><trkpt lat="45.491525" lon="10.4789633"><ele>230.4</ele><time>2026-03-20T17:06:02.616Z</time></trkpt><trkpt lat="45.49153" lon="10.4788117"><ele>230.0</ele><time>2026-03-20T17:06:03.616Z</time></trkpt><trkpt lat="45.4915217" lon="10.4786383"><ele>228.75</ele><time>2026-03-20T17:06:04.617Z</time></trkpt><trkpt lat="45.4915183" lon="10.478485"><ele>227.5</ele><time>2026-03-20T17:06:05.616Z</time></trkpt><trkpt lat="45.4915117" lon="10.4783283"><ele>226.25</ele><time>2026-03-20T17:06:06.616Z</time></trkpt><trkpt lat="45.4915217" lon="10.4781667"><ele>225.0</ele><time>2026-03-20T17:06:07.616Z</time></trkpt><trkpt lat="45.4915367" lon="10.4779917"><ele>223.75</ele><time>2026-03-20T17:06:08.617Z</time></trkpt><trkpt lat="45.4915567" lon="10.4778167"><ele>222.5</ele><time>2026-03-20T17:06:09.616Z</time></trkpt><trkpt lat="45.4915833" lon="10.4776467"><ele>221.25</ele><time>2026-03-20T17:06:10.616Z</time></trkpt><trkpt lat="45.4916217" lon="10.4774733"><ele>220.0</ele><time>2026-03-20T17:06:11.616Z</time></trkpt><trkpt lat="45.4916533" lon="10.47731"><ele>220.0</ele><time>2026-03-20T17:06:12.616Z</time></trkpt><trkpt lat="45.49168" lon="10.4771517"><ele>220.0</ele><time>2026-03-20T17:06:13.616Z</time></trkpt><trkpt lat="45.4916933" lon="10.4770033"><ele>220.0</ele><time>2026-03-20T17:06:14.617Z</time></trkpt><trkpt lat="45.49168" lon="10.47684"><ele>220.0</ele><time>2026-03-20T17:06:15.616Z</time></trkpt><trkpt lat="45.49165" lon="10.47669"><ele>220.0</ele><time>2026-03-20T17:06:16.616Z</time></trkpt><trkpt lat="45.4916317" lon="10.4765583"><ele>219.16666666666666</ele><time>2026-03-20T17:06:17.616Z</time></trkpt><trkpt lat="45.49161" lon="10.4764333"><ele>218.33333333333331</ele><time>2026-03-20T17:06:18.616Z</time></trkpt><trkpt lat="45.4915783" lon="10.476315"><ele>217.5</ele><time>2026-03-20T17:06:19.617Z</time></trkpt><trkpt lat="45.4915567" lon="10.47621"><ele>216.66666666666669</ele><time>2026-03-20T17:06:20.616Z</time></trkpt><trkpt lat="45.49153" lon="10.4761167"><ele>215.83333333333334</ele><time>2026-03-20T17:06:21.616Z</time></trkpt><trkpt lat="45.4914817" lon="10.4760367"><ele>215.0</ele><time>2026-03-20T17:06:22.616Z</time></trkpt><trkpt lat="45.4914333" lon="10.4759567"><ele>214.4</ele><time>2026-03-20T17:06:23.616Z</time></trkpt><trkpt lat="45.49138" lon="10.475865"><ele>213.8</ele><time>2026-03-20T17:06:24.617Z</time></trkpt><trkpt lat="45.4913233" lon="10.4757633"><ele>213.2</ele><time>2026-03-20T17:06:25.616Z</time></trkpt><trkpt lat="45.491225" lon="10.47563"><ele>212.6</ele><time>2026-03-20T17:06:26.616Z</time></trkpt><trkpt lat="45.4911683" lon="10.4755117"><ele>212.0</ele><time>2026-03-20T17:06:27.616Z</time></trkpt><trkpt lat="45.4911217" lon="10.47539"><ele>210.6</ele><time>2026-03-20T17:06:28.616Z</time></trkpt><trkpt lat="45.4910733" lon="10.4752617"><ele>209.2</ele><time>2026-03-20T17:06:29.617Z</time></trkpt><trkpt lat="45.4910217" lon="10.4751233"><ele>207.8</ele><time>2026-03-20T17:06:30.616Z</time></trkpt><trkpt lat="45.4909683" lon="10.4749967"><ele>206.4</ele><time>2026-03-20T17:06:31.616Z</time></trkpt><trkpt lat="45.490915" lon="10.47487"><ele>205.0</ele><time>2026-03-20T17:06:32.617Z</time></trkpt><trkpt lat="45.4908383" lon="10.4747583"><ele>205.0</ele><time>2026-03-20T17:06:33.616Z</time></trkpt><trkpt lat="45.49077" lon="10.474655"><ele>205.0</ele><time>2026-03-20T17:06:34.616Z</time></trkpt><trkpt lat="45.49069" lon="10.47455"><ele>205.0</ele><time>2026-03-20T17:06:35.616Z</time></trkpt><trkpt lat="45.4906133" lon="10.4744433"><ele>205.0</ele><time>2026-03-20T17:06:36.616Z</time></trkpt><trkpt lat="45.4905483" lon="10.47433"><ele>205.0</ele><time>2026-03-20T17:06:37.616Z</time></trkpt><trkpt lat="45.4904617" lon="10.4742033"><ele>202.66666666666666</ele><time>2026-03-20T17:06:38.616Z</time></trkpt><trkpt lat="45.4904117" lon="10.4741233"><ele>200.33333333333331</ele><time>2026-03-20T17:06:39.617Z</time></trkpt><trkpt lat="45.490365" lon="10.474055"><ele>198.0</ele><time>2026-03-20T17:06:40.616Z</time></trkpt><trkpt lat="45.4902983" lon="10.4739467"><ele>195.66666666666666</ele><time>2026-03-20T17:06:41.616Z</time></trkpt><trkpt lat="45.49024" lon="10.4738817"><ele>193.33333333333331</ele><time>2026-03-20T17:06:42.616Z</time></trkpt><trkpt lat="45.490185" lon="10.4737983"><ele>191.0</ele><time>2026-03-20T17:06:43.616Z</time></trkpt><trkpt lat="45.49014" lon="10.4737283"><ele>190.60000000000002</ele><time>2026-03-20T17:06:44.616Z</time></trkpt><trkpt lat="45.4900983" lon="10.473655"><ele>190.2</ele><time>2026-03-20T17:06:45.616Z</time></trkpt><trkpt lat="45.4900517" lon="10.4735483"><ele>189.8</ele><time>2026-03-20T17:06:47.616Z</time></trkpt><trkpt lat="45.4899517" lon="10.47355"><ele>189.39999999999998</ele><time>2026-03-20T17:06:51.617Z</time></trkpt><trkpt lat="45.4898717" lon="10.4736167"><ele>189.0</ele><time>2026-03-20T17:06:53.616Z</time></trkpt><trkpt lat="45.4897783" lon="10.4737183"><ele>189.39999999999998</ele><time>2026-03-20T17:06:55.616Z</time></trkpt><trkpt lat="45.4896717" lon="10.4738233"><ele>189.8</ele><time>2026-03-20T17:06:57.617Z</time></trkpt><trkpt lat="45.4896183" lon="10.473875"><ele>190.2</ele><time>2026-03-20T17:06:58.616Z</time></trkpt><trkpt lat="45.4895217" lon="10.4739683"><ele>190.60000000000002</ele><time>2026-03-20T17:07:00.616Z</time></trkpt><trkpt lat="45.48944" lon="10.47403"><ele>191.0</ele><time>2026-03-20T17:07:02.616Z</time></trkpt><trkpt lat="45.4893783" lon="10.4740967"><ele>190.0</ele><time>2026-03-20T17:07:04.615Z</time></trkpt><trkpt lat="45.489295" lon="10.4741583"><ele>189.0</ele><time>2026-03-20T17:07:06.615Z</time></trkpt><trkpt lat="45.489185" lon="10.4742267"><ele>188.0</ele><time>2026-03-20T17:07:08.615Z</time></trkpt><trkpt lat="45.4891" lon="10.4742583"><ele>187.0</ele><time>2026-03-20T17:07:09.615Z</time></trkpt><trkpt lat="45.4889933" lon="10.4743233"><ele>186.0</ele><time>2026-03-20T17:07:10.616Z</time></trkpt><trkpt lat="45.488865" lon="10.4743933"><ele>185.5</ele><time>2026-03-20T17:07:11.615Z</time></trkpt><trkpt lat="45.4887383" lon="10.47447"><ele>185.0</ele><time>2026-03-20T17:07:12.615Z</time></trkpt><trkpt lat="45.4886117" lon="10.4745383"><ele>184.5</ele><time>2026-03-20T17:07:13.615Z</time></trkpt><trkpt lat="45.4885067" lon="10.4745917"><ele>184.0</ele><time>2026-03-20T17:07:14.615Z</time></trkpt><trkpt lat="45.488425" lon="10.4746467"><ele>184.0</ele><time>2026-03-20T17:07:15.615Z</time></trkpt><trkpt lat="45.4883483" lon="10.474705"><ele>184.0</ele><time>2026-03-20T17:07:16.615Z</time></trkpt><trkpt lat="45.4882733" lon="10.4747633"><ele>184.0</ele><time>2026-03-20T17:07:17.615Z</time></trkpt><trkpt lat="45.488175" lon="10.4748183"><ele>184.0</ele><time>2026-03-20T17:07:18.615Z</time></trkpt><trkpt lat="45.488085" lon="10.4748667"><ele>184.0</ele><time>2026-03-20T17:07:19.615Z</time></trkpt><trkpt lat="45.4879733" lon="10.4749283"><ele>183.6</ele><time>2026-03-20T17:07:20.615Z</time></trkpt><trkpt lat="45.4878533" lon="10.474995"><ele>183.2</ele><time>2026-03-20T17:07:21.615Z</time></trkpt><trkpt lat="45.4877583" lon="10.4750583"><ele>182.79999999999998</ele><time>2026-03-20T17:07:22.615Z</time></trkpt><trkpt lat="45.4876717" lon="10.4751217"><ele>182.39999999999998</ele><time>2026-03-20T17:07:23.615Z</time></trkpt><trkpt lat="45.4876017" lon="10.475185"><ele>182.0</ele><time>2026-03-20T17:07:24.615Z</time></trkpt><trkpt lat="45.4875283" lon="10.47525"><ele>182.0</ele><time>2026-03-20T17:07:25.615Z</time></trkpt><trkpt lat="45.4874617" lon="10.4753267"><ele>182.0</ele><time>2026-03-20T17:07:26.616Z</time></trkpt><trkpt lat="45.4873967" lon="10.4754033"><ele>182.0</ele><time>2026-03-20T17:07:27.615Z</time></trkpt><trkpt lat="45.4873383" lon="10.4754833"><ele>182.0</ele><time>2026-03-20T17:07:28.615Z</time></trkpt><trkpt lat="45.4872383" lon="10.4755983"><ele>182.0</ele><time>2026-03-20T17:07:30.616Z</time></trkpt><trkpt lat="45.4871733" lon="10.4756433"><ele>182.33333333333331</ele><time>2026-03-20T17:07:31.615Z</time></trkpt><trkpt lat="45.4871067" lon="10.475645"><ele>182.66666666666666</ele><time>2026-03-20T17:07:32.616Z</time></trkpt><trkpt lat="45.487035" lon="10.4755867"><ele>183.0</ele><time>2026-03-20T17:07:34.615Z</time></trkpt><trkpt lat="45.48695" lon="10.4754783"><ele>183.33333333333334</ele><time>2026-03-20T17:07:36.616Z</time></trkpt><trkpt lat="45.4869033" lon="10.4753767"><ele>183.66666666666669</ele><time>2026-03-20T17:07:37.615Z</time></trkpt><trkpt lat="45.4868417" lon="10.4752717"><ele>184.0</ele><time>2026-03-20T17:07:38.615Z</time></trkpt><trkpt lat="45.4867683" lon="10.4751333"><ele>184.2</ele><time>2026-03-20T17:07:39.616Z</time></trkpt><trkpt lat="45.4867233" lon="10.4749867"><ele>184.39999999999998</ele><time>2026-03-20T17:07:40.615Z</time></trkpt><trkpt lat="45.4866783" lon="10.4748433"><ele>184.6</ele><time>2026-03-20T17:07:41.615Z</time></trkpt><trkpt lat="45.486645" lon="10.47471"><ele>184.8</ele><time>2026-03-20T17:07:42.615Z</time></trkpt><trkpt lat="45.48662" lon="10.4745617"><ele>185.0</ele><time>2026-03-20T17:07:43.615Z</time></trkpt><trkpt lat="45.486565" lon="10.4744233"><ele>185.0</ele><time>2026-03-20T17:07:44.615Z</time></trkpt><trkpt lat="45.4865683" lon="10.474245"><ele>185.0</ele><time>2026-03-20T17:07:45.616Z</time></trkpt><trkpt lat="45.4865417" lon="10.474095"><ele>185.0</ele><time>2026-03-20T17:07:46.615Z</time></trkpt><trkpt lat="45.4865133" lon="10.47396"><ele>185.0</ele><time>2026-03-20T17:07:47.615Z</time></trkpt><trkpt lat="45.4864967" lon="10.4738233"><ele>185.0</ele><time>2026-03-20T17:07:48.615Z</time></trkpt><trkpt lat="45.4864617" lon="10.4737117"><ele>185.0</ele><time>2026-03-20T17:07:49.615Z</time></trkpt><trkpt lat="45.4864383" lon="10.4735983"><ele>185.0</ele><time>2026-03-20T17:07:50.615Z</time></trkpt><trkpt lat="45.4864133" lon="10.4734917"><ele>185.0</ele><time>2026-03-20T17:07:51.616Z</time></trkpt><trkpt lat="45.4863917" lon="10.4733483"><ele>185.0</ele><time>2026-03-20T17:07:53.615Z</time></trkpt><trkpt lat="45.48638" lon="10.4732333"><ele>185.0</ele><time>2026-03-20T17:07:55.615Z</time></trkpt><trkpt lat="45.4863717" lon="10.4731433"><ele>185.0</ele><time>2026-03-20T17:08:23.615Z</time></trkpt><trkpt lat="45.4862633" lon="10.4730517"><ele>184.8</ele><time>2026-03-20T17:08:26.615Z</time></trkpt><trkpt lat="45.4862" lon="10.4730483"><ele>184.6</ele><time>2026-03-20T17:08:27.615Z</time></trkpt><trkpt lat="45.4861167" lon="10.4730683"><ele>184.39999999999998</ele><time>2026-03-20T17:08:28.615Z</time></trkpt><trkpt lat="45.4859967" lon="10.473145"><ele>184.2</ele><time>2026-03-20T17:08:29.615Z</time></trkpt><trkpt lat="45.4858667" lon="10.47325"><ele>184.0</ele><time>2026-03-20T17:08:30.615Z</time></trkpt><trkpt lat="45.485655" lon="10.473435"><ele>184.0</ele><time>2026-03-20T17:08:31.615Z</time></trkpt><trkpt lat="45.48547" lon="10.4735733"><ele>184.0</ele><time>2026-03-20T17:08:32.615Z</time></trkpt><trkpt lat="45.48527" lon="10.4737333"><ele>184.0</ele><time>2026-03-20T17:08:33.615Z</time></trkpt><trkpt lat="45.485035" lon="10.473875"><ele>184.5</ele><time>2026-03-20T17:08:34.615Z</time></trkpt><trkpt lat="45.4847933" lon="10.47401"><ele>185.0</ele><time>2026-03-20T17:08:35.615Z</time></trkpt><trkpt lat="45.4845733" lon="10.4741133"><ele>185.66666666666666</ele><time>2026-03-20T17:08:36.615Z</time></trkpt><trkpt lat="45.4843617" lon="10.4742067"><ele>186.33333333333334</ele><time>2026-03-20T17:08:37.615Z</time></trkpt><trkpt lat="45.484175" lon="10.4742983"><ele>187.0</ele><time>2026-03-20T17:08:38.615Z</time></trkpt><trkpt lat="45.484005" lon="10.474395"><ele>187.0</ele><time>2026-03-20T17:08:39.615Z</time></trkpt><trkpt lat="45.4838517" lon="10.4744717"><ele>187.0</ele><time>2026-03-20T17:08:40.615Z</time></trkpt><trkpt lat="45.4837083" lon="10.4745433"><ele>187.0</ele><time>2026-03-20T17:08:41.615Z</time></trkpt><trkpt lat="45.4835467" lon="10.4746267"><ele>186.66666666666669</ele><time>2026-03-20T17:08:42.615Z</time></trkpt><trkpt lat="45.4833867" lon="10.4747083"><ele>186.33333333333334</ele><time>2026-03-20T17:08:43.615Z</time></trkpt><trkpt lat="45.4832333" lon="10.4747917"><ele>186.0</ele><time>2026-03-20T17:08:44.616Z</time></trkpt><trkpt lat="45.483095" lon="10.47486"><ele>186.0</ele><time>2026-03-20T17:08:45.615Z</time></trkpt><trkpt lat="45.482955" lon="10.474935"><ele>186.0</ele><time>2026-03-20T17:08:46.615Z</time></trkpt><trkpt lat="45.4828083" lon="10.4750117"><ele>186.0</ele><time>2026-03-20T17:08:47.615Z</time></trkpt><trkpt lat="45.4826633" lon="10.4750833"><ele>187.33333333333334</ele><time>2026-03-20T17:08:48.615Z</time></trkpt><trkpt lat="45.4825167" lon="10.47516"><ele>188.66666666666669</ele><time>2026-03-20T17:08:49.615Z</time></trkpt><trkpt lat="45.48237" lon="10.4752417"><ele>190.0</ele><time>2026-03-20T17:08:50.615Z</time></trkpt><trkpt lat="45.4822283" lon="10.4753017"><ele>189.66666666666669</ele><time>2026-03-20T17:08:51.615Z</time></trkpt><trkpt lat="45.4820733" lon="10.4754"><ele>189.33333333333334</ele><time>2026-03-20T17:08:52.615Z</time></trkpt><trkpt lat="45.4819283" lon="10.4754917"><ele>189.0</ele><time>2026-03-20T17:08:53.615Z</time></trkpt><trkpt lat="45.481795" lon="10.4755767"><ele>189.0</ele><time>2026-03-20T17:08:54.615Z</time></trkpt><trkpt lat="45.4816733" lon="10.4756467"><ele>189.0</ele><time>2026-03-20T17:08:55.615Z</time></trkpt><trkpt lat="45.4815467" lon="10.4757117"><ele>189.0</ele><time>2026-03-20T17:08:56.616Z</time></trkpt><trkpt lat="45.4814267" lon="10.4757717"><ele>189.0</ele><time>2026-03-20T17:08:57.615Z</time></trkpt><trkpt lat="45.48132" lon="10.47582"><ele>189.5</ele><time>2026-03-20T17:08:58.615Z</time></trkpt><trkpt lat="45.481225" lon="10.4758733"><ele>190.0</ele><time>2026-03-20T17:08:59.615Z</time></trkpt><trkpt lat="45.481115" lon="10.47594"><ele>190.5</ele><time>2026-03-20T17:09:00.615Z</time></trkpt><trkpt lat="45.481" lon="10.4759933"><ele>191.0</ele><time>2026-03-20T17:09:01.615Z</time></trkpt><trkpt lat="45.48089" lon="10.4760583"><ele>191.0</ele><time>2026-03-20T17:09:02.615Z</time></trkpt><trkpt lat="45.4807867" lon="10.4761067"><ele>191.0</ele><time>2026-03-20T17:09:03.615Z</time></trkpt><trkpt lat="45.480675" lon="10.4761667"><ele>191.0</ele><time>2026-03-20T17:09:04.615Z</time></trkpt><trkpt lat="45.4805617" lon="10.4762267"><ele>191.0</ele><time>2026-03-20T17:09:05.615Z</time></trkpt><trkpt lat="45.480445" lon="10.476295"><ele>192.25</ele><time>2026-03-20T17:09:06.615Z</time></trkpt><trkpt lat="45.4803217" lon="10.4763633"><ele>193.5</ele><time>2026-03-20T17:09:07.615Z</time></trkpt><trkpt lat="45.4801933" lon="10.47643"><ele>194.75</ele><time>2026-03-20T17:09:08.615Z</time></trkpt><trkpt lat="45.48006" lon="10.4764983"><ele>196.0</ele><time>2026-03-20T17:09:09.616Z</time></trkpt><trkpt lat="45.4799183" lon="10.4765667"><ele>196.0</ele><time>2026-03-20T17:09:10.615Z</time></trkpt><trkpt lat="45.479775" lon="10.4766333"><ele>196.0</ele><time>2026-03-20T17:09:11.615Z</time></trkpt><trkpt lat="45.4796183" lon="10.47669"><ele>196.0</ele><time>2026-03-20T17:09:12.615Z</time></trkpt><trkpt lat="45.479455" lon="10.4767067"><ele>196.33333333333331</ele><time>2026-03-20T17:09:13.615Z</time></trkpt><trkpt lat="45.47926" lon="10.4767167"><ele>196.66666666666669</ele><time>2026-03-20T17:09:14.615Z</time></trkpt><trkpt lat="45.47906" lon="10.4766783"><ele>197.0</ele><time>2026-03-20T17:09:15.615Z</time></trkpt><trkpt lat="45.4788667" lon="10.476635"><ele>197.0</ele><time>2026-03-20T17:09:16.615Z</time></trkpt><trkpt lat="45.4786767" lon="10.4766"><ele>197.0</ele><time>2026-03-20T17:09:17.615Z</time></trkpt><trkpt lat="45.4785167" lon="10.4765867"><ele>197.0</ele><time>2026-03-20T17:09:18.615Z</time></trkpt><trkpt lat="45.4783467" lon="10.47657"><ele>197.0</ele><time>2026-03-20T17:09:19.615Z</time></trkpt><trkpt lat="45.4781783" lon="10.4765667"><ele>197.0</ele><time>2026-03-20T17:09:20.615Z</time></trkpt><trkpt lat="45.477995" lon="10.47655"><ele>197.0</ele><time>2026-03-20T17:09:21.615Z</time></trkpt><trkpt lat="45.47782" lon="10.4765617"><ele>197.33333333333334</ele><time>2026-03-20T17:09:22.615Z</time></trkpt><trkpt lat="45.4776583" lon="10.4766083"><ele>197.66666666666669</ele><time>2026-03-20T17:09:23.615Z</time></trkpt><trkpt lat="45.477485" lon="10.4766933"><ele>198.0</ele><time>2026-03-20T17:09:24.615Z</time></trkpt><trkpt lat="45.4773117" lon="10.47679"><ele>198.0</ele><time>2026-03-20T17:09:25.615Z</time></trkpt><trkpt lat="45.4771367" lon="10.476875"><ele>198.0</ele><time>2026-03-20T17:09:26.615Z</time></trkpt><trkpt lat="45.476965" lon="10.47696"><ele>198.0</ele><time>2026-03-20T17:09:27.615Z</time></trkpt><trkpt lat="45.47679" lon="10.4770433"><ele>199.66666666666669</ele><time>2026-03-20T17:09:28.615Z</time></trkpt><trkpt lat="45.4766333" lon="10.47711"><ele>201.33333333333334</ele><time>2026-03-20T17:09:29.615Z</time></trkpt><trkpt lat="45.4764833" lon="10.4771833"><ele>203.0</ele><time>2026-03-20T17:09:30.615Z</time></trkpt><trkpt lat="45.4763283" lon="10.4772517"><ele>202.5</ele><time>2026-03-20T17:09:31.615Z</time></trkpt><trkpt lat="45.4761883" lon="10.4773233"><ele>202.0</ele><time>2026-03-20T17:09:32.615Z</time></trkpt><trkpt lat="45.4760533" lon="10.47741"><ele>201.5</ele><time>2026-03-20T17:09:33.616Z</time></trkpt><trkpt lat="45.4759233" lon="10.4775083"><ele>201.0</ele><time>2026-03-20T17:09:34.615Z</time></trkpt><trkpt lat="45.47579" lon="10.4776183"><ele>201.0</ele><time>2026-03-20T17:09:35.615Z</time></trkpt><trkpt lat="45.4756733" lon="10.4777483"><ele>201.0</ele><time>2026-03-20T17:09:36.615Z</time></trkpt><trkpt lat="45.4755433" lon="10.4778667"><ele>201.0</ele><time>2026-03-20T17:09:37.616Z</time></trkpt><trkpt lat="45.475425" lon="10.477985"><ele>201.0</ele><time>2026-03-20T17:09:38.615Z</time></trkpt><trkpt lat="45.4753167" lon="10.4780733"><ele>200.25</ele><time>2026-03-20T17:09:39.615Z</time></trkpt><trkpt lat="45.47521" lon="10.4781267"><ele>199.5</ele><time>2026-03-20T17:09:40.615Z</time></trkpt><trkpt lat="45.4750967" lon="10.4781917"><ele>198.75</ele><time>2026-03-20T17:09:41.615Z</time></trkpt><trkpt lat="45.4749767" lon="10.47821"><ele>198.0</ele><time>2026-03-20T17:09:42.615Z</time></trkpt><trkpt lat="45.4748467" lon="10.4782233"><ele>198.0</ele><time>2026-03-20T17:09:43.615Z</time></trkpt><trkpt lat="45.47472" lon="10.478195"><ele>198.0</ele><time>2026-03-20T17:09:44.615Z</time></trkpt><trkpt lat="45.4745733" lon="10.4781767"><ele>198.0</ele><time>2026-03-20T17:09:45.615Z</time></trkpt><trkpt lat="45.4744067" lon="10.478165"><ele>198.0</ele><time>2026-03-20T17:09:46.615Z</time></trkpt><trkpt lat="45.4742433" lon="10.47817"><ele>199.33333333333331</ele><time>2026-03-20T17:09:47.615Z</time></trkpt><trkpt lat="45.47409" lon="10.4781667"><ele>200.66666666666666</ele><time>2026-03-20T17:09:48.615Z</time></trkpt><trkpt lat="45.4739333" lon="10.478155"><ele>202.0</ele><time>2026-03-20T17:09:49.615Z</time></trkpt><trkpt lat="45.4737733" lon="10.4781617"><ele>202.25</ele><time>2026-03-20T17:09:50.615Z</time></trkpt><trkpt lat="45.4736233" lon="10.4782017"><ele>202.5</ele><time>2026-03-20T17:09:51.615Z</time></trkpt><trkpt lat="45.4734933" lon="10.4782517"><ele>202.75</ele><time>2026-03-20T17:09:52.615Z</time></trkpt><trkpt lat="45.47335" lon="10.47832"><ele>203.0</ele><time>2026-03-20T17:09:53.616Z</time></trkpt><trkpt lat="45.473225" lon="10.478415"><ele>203.0</ele><time>2026-03-20T17:09:54.615Z</time></trkpt><trkpt lat="45.4730717" lon="10.4785217"><ele>203.0</ele><time>2026-03-20T17:09:55.616Z</time></trkpt><trkpt lat="45.47291" lon="10.4786033"><ele>203.0</ele><time>2026-03-20T17:09:56.615Z</time></trkpt><trkpt lat="45.4727517" lon="10.4786833"><ele>202.66666666666669</ele><time>2026-03-20T17:09:57.615Z</time></trkpt><trkpt lat="45.472595" lon="10.4787617"><ele>202.33333333333331</ele><time>2026-03-20T17:09:58.615Z</time></trkpt><trkpt lat="45.4724417" lon="10.47884"><ele>202.0</ele><time>2026-03-20T17:09:59.615Z</time></trkpt><trkpt lat="45.472295" lon="10.4789233"><ele>202.0</ele><time>2026-03-20T17:10:00.615Z</time></trkpt><trkpt lat="45.472165" lon="10.478985"><ele>202.0</ele><time>2026-03-20T17:10:01.615Z</time></trkpt><trkpt lat="45.4720333" lon="10.4790567"><ele>202.0</ele><time>2026-03-20T17:10:02.616Z</time></trkpt><trkpt lat="45.4719033" lon="10.4791183"><ele>202.0</ele><time>2026-03-20T17:10:03.615Z</time></trkpt><trkpt lat="45.4717667" lon="10.4791883"><ele>200.75</ele><time>2026-03-20T17:10:04.616Z</time></trkpt><trkpt lat="45.471645" lon="10.4792533"><ele>199.5</ele><time>2026-03-20T17:10:05.615Z</time></trkpt><trkpt lat="45.4715317" lon="10.4793067"><ele>198.25</ele><time>2026-03-20T17:10:06.615Z</time></trkpt><trkpt lat="45.4714133" lon="10.4793683"><ele>197.0</ele><time>2026-03-20T17:10:07.615Z</time></trkpt><trkpt lat="45.4712817" lon="10.4794317"><ele>197.0</ele><time>2026-03-20T17:10:08.615Z</time></trkpt><trkpt lat="45.4711567" lon="10.4794983"><ele>197.0</ele><time>2026-03-20T17:10:09.615Z</time></trkpt><trkpt lat="45.47103" lon="10.4795583"><ele>197.0</ele><time>2026-03-20T17:10:10.615Z</time></trkpt><trkpt lat="45.47091" lon="10.479615"><ele>197.0</ele><time>2026-03-20T17:10:11.615Z</time></trkpt><trkpt lat="45.4708" lon="10.479675"><ele>197.0</ele><time>2026-03-20T17:10:12.615Z</time></trkpt><trkpt lat="45.4706917" lon="10.4797383"><ele>197.0</ele><time>2026-03-20T17:10:13.615Z</time></trkpt><trkpt lat="45.470585" lon="10.4797933"><ele>197.0</ele><time>2026-03-20T17:10:14.615Z</time></trkpt><trkpt lat="45.4704917" lon="10.479845"><ele>197.0</ele><time>2026-03-20T17:10:15.615Z</time></trkpt><trkpt lat="45.4704017" lon="10.47989"><ele>197.0</ele><time>2026-03-20T17:10:16.615Z</time></trkpt><trkpt lat="45.4703233" lon="10.4799333"><ele>196.00000000000003</ele><time>2026-03-20T17:10:17.615Z</time></trkpt><trkpt lat="45.4702367" lon="10.4799733"><ele>195.0</ele><time>2026-03-20T17:10:18.615Z</time></trkpt><trkpt lat="45.4701483" lon="10.4799883"><ele>194.0</ele><time>2026-03-20T17:10:19.615Z</time></trkpt><trkpt lat="45.4700617" lon="10.4799883"><ele>193.0</ele><time>2026-03-20T17:10:20.615Z</time></trkpt><trkpt lat="45.4699833" lon="10.479965"><ele>192.0</ele><time>2026-03-20T17:10:21.615Z</time></trkpt><trkpt lat="45.46991" lon="10.4799033"><ele>191.0</ele><time>2026-03-20T17:10:22.615Z</time></trkpt><trkpt lat="45.4698433" lon="10.47982"><ele>191.0</ele><time>2026-03-20T17:10:23.615Z</time></trkpt><trkpt lat="45.4698283" lon="10.4796333"><ele>191.0</ele><time>2026-03-20T17:10:24.615Z</time></trkpt><trkpt lat="45.46982" lon="10.4794583"><ele>191.0</ele><time>2026-03-20T17:10:25.615Z</time></trkpt><trkpt lat="45.4698167" lon="10.4792583"><ele>191.0</ele><time>2026-03-20T17:10:26.615Z</time></trkpt><trkpt lat="45.4698067" lon="10.4790683"><ele>191.0</ele><time>2026-03-20T17:10:27.614Z</time></trkpt><trkpt lat="45.4697983" lon="10.478885"><ele>191.0</ele><time>2026-03-20T17:10:28.615Z</time></trkpt><trkpt lat="45.46979" lon="10.4787117"><ele>191.0</ele><time>2026-03-20T17:10:29.616Z</time></trkpt><trkpt lat="45.469785" lon="10.478555"><ele>191.0</ele><time>2026-03-20T17:10:30.615Z</time></trkpt><trkpt lat="45.4697617" lon="10.4784233"><ele>191.0</ele><time>2026-03-20T17:10:31.615Z</time></trkpt><trkpt lat="45.4697283" lon="10.4783"><ele>191.0</ele><time>2026-03-20T17:10:32.615Z</time></trkpt><trkpt lat="45.4696917" lon="10.4781833"><ele>191.0</ele><time>2026-03-20T17:10:33.615Z</time></trkpt><trkpt lat="45.4696417" lon="10.4780883"><ele>191.0</ele><time>2026-03-20T17:10:34.615Z</time></trkpt><trkpt lat="45.4695767" lon="10.4780467"><ele>191.0</ele><time>2026-03-20T17:10:35.616Z</time></trkpt><trkpt lat="45.469495" lon="10.4779867"><ele>191.0</ele><time>2026-03-20T17:10:36.615Z</time></trkpt><trkpt lat="45.469355" lon="10.477975"><ele>189.0</ele><time>2026-03-20T17:10:37.615Z</time></trkpt><trkpt lat="45.4691483" lon="10.478025"><ele>187.0</ele><time>2026-03-20T17:10:38.615Z</time></trkpt><trkpt lat="45.4690133" lon="10.47802"><ele>185.0</ele><time>2026-03-20T17:10:39.615Z</time></trkpt><trkpt lat="45.4688283" lon="10.478065"><ele>183.5</ele><time>2026-03-20T17:10:40.615Z</time></trkpt><trkpt lat="45.4685483" lon="10.4782017"><ele>182.0</ele><time>2026-03-20T17:10:41.615Z</time></trkpt><trkpt lat="45.4683433" lon="10.478265"><ele>182.0</ele><time>2026-03-20T17:10:42.615Z</time></trkpt><trkpt lat="45.4681717" lon="10.4783067"><ele>182.0</ele><time>2026-03-20T17:10:43.615Z</time></trkpt><trkpt lat="45.4680233" lon="10.4783333"><ele>182.0</ele><time>2026-03-20T17:10:44.615Z</time></trkpt><trkpt lat="45.46787" lon="10.4783317"><ele>181.5</ele><time>2026-03-20T17:10:45.615Z</time></trkpt><trkpt lat="45.467725" lon="10.4783117"><ele>181.0</ele><time>2026-03-20T17:10:46.615Z</time></trkpt><trkpt lat="45.4675867" lon="10.4783033"><ele>180.5</ele><time>2026-03-20T17:10:47.615Z</time></trkpt><trkpt lat="45.4674633" lon="10.4782867"><ele>180.0</ele><time>2026-03-20T17:10:48.615Z</time></trkpt><trkpt lat="45.4673483" lon="10.4782783"><ele>180.0</ele><time>2026-03-20T17:10:49.615Z</time></trkpt><trkpt lat="45.4672217" lon="10.4782817"><ele>180.0</ele><time>2026-03-20T17:10:50.615Z</time></trkpt><trkpt lat="45.467095" lon="10.4782867"><ele>180.0</ele><time>2026-03-20T17:10:51.616Z</time></trkpt><trkpt lat="45.46698" lon="10.4782783"><ele>180.0</ele><time>2026-03-20T17:10:52.615Z</time></trkpt><trkpt lat="45.46686" lon="10.4782783"><ele>179.4</ele><time>2026-03-20T17:10:53.615Z</time></trkpt><trkpt lat="45.466745" lon="10.478265"><ele>178.8</ele><time>2026-03-20T17:10:54.616Z</time></trkpt><trkpt lat="45.4666317" lon="10.47828"><ele>178.2</ele><time>2026-03-20T17:10:55.615Z</time></trkpt><trkpt lat="45.4665217" lon="10.47829"><ele>177.6</ele><time>2026-03-20T17:10:56.615Z</time></trkpt><trkpt lat="45.466425" lon="10.4782967"><ele>177.0</ele><time>2026-03-20T17:10:57.615Z</time></trkpt><trkpt lat="45.4663317" lon="10.4783083"><ele>177.0</ele><time>2026-03-20T17:10:58.615Z</time></trkpt><trkpt lat="45.4662383" lon="10.47831"><ele>177.0</ele><time>2026-03-20T17:10:59.615Z</time></trkpt><trkpt lat="45.4661433" lon="10.4783083"><ele>177.0</ele><time>2026-03-20T17:11:00.615Z</time></trkpt><trkpt lat="45.46605" lon="10.4783017"><ele>177.0</ele><time>2026-03-20T17:11:01.615Z</time></trkpt><trkpt lat="45.4659533" lon="10.4782967"><ele>177.0</ele><time>2026-03-20T17:11:02.615Z</time></trkpt><trkpt lat="45.4658533" lon="10.478285"><ele>177.0</ele><time>2026-03-20T17:11:03.615Z</time></trkpt><trkpt lat="45.46576" lon="10.4782817"><ele>177.0</ele><time>2026-03-20T17:11:04.615Z</time></trkpt><trkpt lat="45.46567" lon="10.4782733"><ele>177.0</ele><time>2026-03-20T17:11:05.615Z</time></trkpt><trkpt lat="45.4655767" lon="10.4782783"><ele>177.0</ele><time>2026-03-20T17:11:06.615Z</time></trkpt><trkpt lat="45.465485" lon="10.47828"><ele>177.0</ele><time>2026-03-20T17:11:07.615Z</time></trkpt><trkpt lat="45.4653967" lon="10.4782783"><ele>176.33333333333334</ele><time>2026-03-20T17:11:08.615Z</time></trkpt><trkpt lat="45.46531" lon="10.4782783"><ele>175.66666666666666</ele><time>2026-03-20T17:11:09.615Z</time></trkpt><trkpt lat="45.4652333" lon="10.4782683"><ele>175.0</ele><time>2026-03-20T17:11:10.615Z</time></trkpt><trkpt lat="45.4651517" lon="10.47827"><ele>174.33333333333331</ele><time>2026-03-20T17:11:11.615Z</time></trkpt><trkpt lat="45.4650733" lon="10.47827"><ele>173.66666666666666</ele><time>2026-03-20T17:11:12.615Z</time></trkpt><trkpt lat="45.465005" lon="10.478275"><ele>173.0</ele><time>2026-03-20T17:11:13.615Z</time></trkpt><trkpt lat="45.464935" lon="10.478285"><ele>173.0</ele><time>2026-03-20T17:11:14.615Z</time></trkpt><trkpt lat="45.464865" lon="10.478285"><ele>173.0</ele><time>2026-03-20T17:11:15.616Z</time></trkpt><trkpt lat="45.4648" lon="10.478285"><ele>173.0</ele><time>2026-03-20T17:11:16.615Z</time></trkpt><trkpt lat="45.4647033" lon="10.47819"><ele>173.0</ele><time>2026-03-20T17:11:18.615Z</time></trkpt><trkpt lat="45.4646533" lon="10.47813"><ele>173.0</ele><time>2026-03-20T17:11:19.615Z</time></trkpt><trkpt lat="45.4646033" lon="10.4780383"><ele>173.0</ele><time>2026-03-20T17:11:20.615Z</time></trkpt><trkpt lat="45.4645483" lon="10.4779167"><ele>172.60000000000002</ele><time>2026-03-20T17:11:21.615Z</time></trkpt><trkpt lat="45.464485" lon="10.4777867"><ele>172.20000000000002</ele><time>2026-03-20T17:11:22.615Z</time></trkpt><trkpt lat="45.4644267" lon="10.477655"><ele>171.8</ele><time>2026-03-20T17:11:23.615Z</time></trkpt><trkpt lat="45.4643667" lon="10.47753"><ele>171.4</ele><time>2026-03-20T17:11:24.616Z</time></trkpt><trkpt lat="45.4643083" lon="10.4774133"><ele>171.0</ele><time>2026-03-20T17:11:25.616Z</time></trkpt><trkpt lat="45.464245" lon="10.4773133"><ele>171.0</ele><time>2026-03-20T17:11:26.615Z</time></trkpt><trkpt lat="45.4641883" lon="10.4772083"><ele>171.0</ele><time>2026-03-20T17:11:27.615Z</time></trkpt><trkpt lat="45.4641433" lon="10.4771033"><ele>171.0</ele><time>2026-03-20T17:11:28.615Z</time></trkpt><trkpt lat="45.464105" lon="10.4769833"><ele>171.0</ele><time>2026-03-20T17:11:29.615Z</time></trkpt><trkpt lat="45.46406" lon="10.4768767"><ele>171.0</ele><time>2026-03-20T17:11:30.615Z</time></trkpt><trkpt lat="45.4640217" lon="10.4767683"><ele>171.0</ele><time>2026-03-20T17:11:31.616Z</time></trkpt><trkpt lat="45.4639783" lon="10.4766617"><ele>170.60000000000002</ele><time>2026-03-20T17:11:32.615Z</time></trkpt><trkpt lat="45.4639283" lon="10.47654"><ele>170.2</ele><time>2026-03-20T17:11:33.615Z</time></trkpt><trkpt lat="45.4638833" lon="10.4764183"><ele>169.8</ele><time>2026-03-20T17:11:34.615Z</time></trkpt><trkpt lat="45.4638417" lon="10.4762817"><ele>169.39999999999998</ele><time>2026-03-20T17:11:35.615Z</time></trkpt><trkpt lat="45.4637933" lon="10.4761517"><ele>169.0</ele><time>2026-03-20T17:11:36.615Z</time></trkpt><trkpt lat="45.4637567" lon="10.47602"><ele>168.39999999999998</ele><time>2026-03-20T17:11:37.615Z</time></trkpt><trkpt lat="45.4637317" lon="10.4758867"><ele>167.8</ele><time>2026-03-20T17:11:38.616Z</time></trkpt><trkpt lat="45.4637083" lon="10.4757517"><ele>167.2</ele><time>2026-03-20T17:11:39.615Z</time></trkpt><trkpt lat="45.463685" lon="10.475615"><ele>166.60000000000002</ele><time>2026-03-20T17:11:40.615Z</time></trkpt><trkpt lat="45.4636633" lon="10.47549"><ele>166.0</ele><time>2026-03-20T17:11:41.615Z</time></trkpt><trkpt lat="45.4636583" lon="10.47537"><ele>165.60000000000002</ele><time>2026-03-20T17:11:42.615Z</time></trkpt><trkpt lat="45.4636517" lon="10.4752617"><ele>165.2</ele><time>2026-03-20T17:11:43.615Z</time></trkpt><trkpt lat="45.4636467" lon="10.475125"><ele>164.8</ele><time>2026-03-20T17:11:45.615Z</time></trkpt><trkpt lat="45.463645" lon="10.47499"><ele>164.39999999999998</ele><time>2026-03-20T17:11:47.615Z</time></trkpt><trkpt lat="45.4636517" lon="10.4748533"><ele>164.0</ele><time>2026-03-20T17:11:49.615Z</time></trkpt><trkpt lat="45.4636217" lon="10.4747317"><ele>164.0</ele><time>2026-03-20T17:11:51.615Z</time></trkpt><trkpt lat="45.4635517" lon="10.4746233"><ele>164.0</ele><time>2026-03-20T17:11:53.615Z</time></trkpt><trkpt lat="45.4634683" lon="10.4745167"><ele>164.0</ele><time>2026-03-20T17:11:55.615Z</time></trkpt><trkpt lat="45.4634017" lon="10.474455"><ele>164.0</ele><time>2026-03-20T17:11:56.615Z</time></trkpt><trkpt lat="45.46332" lon="10.4743883"><ele>164.0</ele><time>2026-03-20T17:11:57.615Z</time></trkpt><trkpt lat="45.4632333" lon="10.474325"><ele>163.66666666666666</ele><time>2026-03-20T17:11:58.615Z</time></trkpt><trkpt lat="45.46316" lon="10.4742633"><ele>163.33333333333331</ele><time>2026-03-20T17:11:59.615Z</time></trkpt><trkpt lat="45.463085" lon="10.4741967"><ele>163.0</ele><time>2026-03-20T17:12:00.616Z</time></trkpt><trkpt lat="45.463015" lon="10.4741467"><ele>162.66666666666666</ele><time>2026-03-20T17:12:01.615Z</time></trkpt><trkpt lat="45.46295" lon="10.474105"><ele>162.33333333333334</ele><time>2026-03-20T17:12:02.615Z</time></trkpt><trkpt lat="45.4628517" lon="10.4740233"><ele>162.0</ele><time>2026-03-20T17:12:04.615Z</time></trkpt><trkpt lat="45.4627717" lon="10.4739967"><ele>162.0</ele><time>2026-03-20T17:12:07.615Z</time></trkpt><trkpt lat="45.4627317" lon="10.47388"><ele>162.0</ele><time>2026-03-20T17:12:09.615Z</time></trkpt><trkpt lat="45.4627167" lon="10.4737783"><ele>162.0</ele><time>2026-03-20T17:12:10.615Z</time></trkpt><trkpt lat="45.462715" lon="10.473655"><ele>162.0</ele><time>2026-03-20T17:12:11.615Z</time></trkpt><trkpt lat="45.4627333" lon="10.47351"><ele>162.0</ele><time>2026-03-20T17:12:12.616Z</time></trkpt><trkpt lat="45.4627867" lon="10.4733467"><ele>161.5</ele><time>2026-03-20T17:12:13.615Z</time></trkpt><trkpt lat="45.462875" lon="10.473165"><ele>161.0</ele><time>2026-03-20T17:12:14.615Z</time></trkpt><trkpt lat="45.4629467" lon="10.4729967"><ele>160.5</ele><time>2026-03-20T17:12:15.615Z</time></trkpt><trkpt lat="45.4630017" lon="10.4728317"><ele>160.0</ele><time>2026-03-20T17:12:16.614Z</time></trkpt><trkpt lat="45.4630567" lon="10.4726667"><ele>160.0</ele><time>2026-03-20T17:12:17.615Z</time></trkpt><trkpt lat="45.4631117" lon="10.472495"><ele>160.0</ele><time>2026-03-20T17:12:18.615Z</time></trkpt><trkpt lat="45.4631767" lon="10.472325"><ele>160.0</ele><time>2026-03-20T17:12:19.615Z</time></trkpt><trkpt lat="45.46324" lon="10.4721467"><ele>160.0</ele><time>2026-03-20T17:12:20.615Z</time></trkpt><trkpt lat="45.4633033" lon="10.47196"><ele>159.66666666666669</ele><time>2026-03-20T17:12:21.615Z</time></trkpt><trkpt lat="45.4633683" lon="10.47177"><ele>159.33333333333334</ele><time>2026-03-20T17:12:22.615Z</time></trkpt><trkpt lat="45.463435" lon="10.4715717"><ele>159.0</ele><time>2026-03-20T17:12:23.615Z</time></trkpt><trkpt lat="45.463495" lon="10.47138"><ele>158.5</ele><time>2026-03-20T17:12:24.615Z</time></trkpt><trkpt lat="45.463555" lon="10.471195"><ele>158.0</ele><time>2026-03-20T17:12:25.615Z</time></trkpt><trkpt lat="45.463615" lon="10.4710117"><ele>157.5</ele><time>2026-03-20T17:12:26.615Z</time></trkpt><trkpt lat="45.46367" lon="10.4708383"><ele>157.0</ele><time>2026-03-20T17:12:27.616Z</time></trkpt><trkpt lat="45.4637233" lon="10.4706717"><ele>156.75</ele><time>2026-03-20T17:12:28.615Z</time></trkpt><trkpt lat="45.4637833" lon="10.4705133"><ele>156.5</ele><time>2026-03-20T17:12:29.615Z</time></trkpt><trkpt lat="45.463845" lon="10.470355"><ele>156.25</ele><time>2026-03-20T17:12:30.615Z</time></trkpt><trkpt lat="45.46391" lon="10.4702467"><ele>156.0</ele><time>2026-03-20T17:12:31.615Z</time></trkpt><trkpt lat="45.4639483" lon="10.470085"><ele>155.83333333333334</ele><time>2026-03-20T17:12:32.615Z</time></trkpt><trkpt lat="45.464" lon="10.4699667"><ele>155.66666666666666</ele><time>2026-03-20T17:12:33.615Z</time></trkpt><trkpt lat="45.4640333" lon="10.4698633"><ele>155.5</ele><time>2026-03-20T17:12:34.615Z</time></trkpt><trkpt lat="45.4640633" lon="10.46976"><ele>155.33333333333331</ele><time>2026-03-20T17:12:35.615Z</time></trkpt><trkpt lat="45.4640917" lon="10.4696717"><ele>155.16666666666666</ele><time>2026-03-20T17:12:36.615Z</time></trkpt><trkpt lat="45.4641267" lon="10.4695867"><ele>155.0</ele><time>2026-03-20T17:12:37.615Z</time></trkpt><trkpt lat="45.464165" lon="10.4694917"><ele>154.75</ele><time>2026-03-20T17:12:38.615Z</time></trkpt><trkpt lat="45.464205" lon="10.4693833"><ele>154.5</ele><time>2026-03-20T17:12:39.615Z</time></trkpt><trkpt lat="45.4642417" lon="10.4692417"><ele>154.25</ele><time>2026-03-20T17:12:40.615Z</time></trkpt><trkpt lat="45.464295" lon="10.46907"><ele>154.0</ele><time>2026-03-20T17:12:41.615Z</time></trkpt><trkpt lat="45.4643483" lon="10.4688733"><ele>153.66666666666669</ele><time>2026-03-20T17:12:42.615Z</time></trkpt><trkpt lat="45.4644367" lon="10.4685967"><ele>153.33333333333334</ele><time>2026-03-20T17:12:43.615Z</time></trkpt><trkpt lat="45.4645217" lon="10.46829"><ele>153.0</ele><time>2026-03-20T17:12:44.615Z</time></trkpt><trkpt lat="45.4646017" lon="10.467975"><ele>152.0</ele><time>2026-03-20T17:12:45.615Z</time></trkpt><trkpt lat="45.4646767" lon="10.4676783"><ele>151.0</ele><time>2026-03-20T17:12:46.615Z</time></trkpt><trkpt lat="45.4647483" lon="10.4674083"><ele>150.0</ele><time>2026-03-20T17:12:47.615Z</time></trkpt><trkpt lat="45.46481" lon="10.467165"><ele>150.0</ele><time>2026-03-20T17:12:48.615Z</time></trkpt><trkpt lat="45.464855" lon="10.4669467"><ele>150.0</ele><time>2026-03-20T17:12:49.615Z</time></trkpt><trkpt lat="45.4649133" lon="10.466735"><ele>150.0</ele><time>2026-03-20T17:12:50.616Z</time></trkpt><trkpt lat="45.46497" lon="10.46651"><ele>150.0</ele><time>2026-03-20T17:12:51.616Z</time></trkpt><trkpt lat="45.4650233" lon="10.4662983"><ele>150.0</ele><time>2026-03-20T17:12:52.615Z</time></trkpt><trkpt lat="45.4650733" lon="10.46608"><ele>150.0</ele><time>2026-03-20T17:12:53.615Z</time></trkpt><trkpt lat="45.46514" lon="10.465855"><ele>149.66666666666666</ele><time>2026-03-20T17:12:54.615Z</time></trkpt><trkpt lat="45.4651967" lon="10.4656333"><ele>149.33333333333331</ele><time>2026-03-20T17:12:55.615Z</time></trkpt><trkpt lat="45.4652433" lon="10.465415"><ele>149.0</ele><time>2026-03-20T17:12:56.615Z</time></trkpt><trkpt lat="45.4652833" lon="10.4652117"><ele>148.75</ele><time>2026-03-20T17:12:57.615Z</time></trkpt><trkpt lat="45.4653217" lon="10.4650183"><ele>148.5</ele><time>2026-03-20T17:12:58.615Z</time></trkpt><trkpt lat="45.4653633" lon="10.464825"><ele>148.25</ele><time>2026-03-20T17:12:59.615Z</time></trkpt><trkpt lat="45.4654" lon="10.4646433"><ele>148.0</ele><time>2026-03-20T17:13:00.615Z</time></trkpt><trkpt lat="45.4654333" lon="10.4644717"><ele>147.6</ele><time>2026-03-20T17:13:01.616Z</time></trkpt><trkpt lat="45.4654683" lon="10.464315"><ele>147.20000000000002</ele><time>2026-03-20T17:13:02.615Z</time></trkpt><trkpt lat="45.4655033" lon="10.464165"><ele>146.8</ele><time>2026-03-20T17:13:03.615Z</time></trkpt><trkpt lat="45.46553" lon="10.46403"><ele>146.4</ele><time>2026-03-20T17:13:04.615Z</time></trkpt><trkpt lat="45.465555" lon="10.4639267"><ele>146.0</ele><time>2026-03-20T17:13:05.615Z</time></trkpt><trkpt lat="45.4655883" lon="10.463825"><ele>146.0</ele><time>2026-03-20T17:13:06.615Z</time></trkpt><trkpt lat="45.4656283" lon="10.4637367"><ele>146.0</ele><time>2026-03-20T17:13:07.615Z</time></trkpt><trkpt lat="45.4656667" lon="10.463655"><ele>146.0</ele><time>2026-03-20T17:13:08.615Z</time></trkpt><trkpt lat="45.4656967" lon="10.4634967"><ele>146.0</ele><time>2026-03-20T17:13:10.615Z</time></trkpt><trkpt lat="45.465695" lon="10.4634067"><ele>146.0</ele><time>2026-03-20T17:13:11.615Z</time></trkpt><trkpt lat="45.4656267" lon="10.4633633"><ele>146.0</ele><time>2026-03-20T17:13:12.615Z</time></trkpt><trkpt lat="45.465535" lon="10.463355"><ele>146.0</ele><time>2026-03-20T17:13:14.615Z</time></trkpt><trkpt lat="45.4654783" lon="10.4634117"><ele>146.0</ele><time>2026-03-20T17:13:15.615Z</time></trkpt><trkpt lat="45.46541" lon="10.463575"><ele>146.0</ele><time>2026-03-20T17:13:16.615Z</time></trkpt><trkpt lat="45.4653317" lon="10.4636867"><ele>146.0</ele><time>2026-03-20T17:13:17.615Z</time></trkpt><trkpt lat="45.46525" lon="10.463775"><ele>146.0</ele><time>2026-03-20T17:13:18.615Z</time></trkpt><trkpt lat="45.4651633" lon="10.46382"><ele>146.0</ele><time>2026-03-20T17:13:19.615Z</time></trkpt><trkpt lat="45.4650967" lon="10.46383"><ele>146.0</ele><time>2026-03-20T17:13:20.615Z</time></trkpt><trkpt lat="45.4650083" lon="10.4637717"><ele>146.0</ele><time>2026-03-20T17:13:22.615Z</time></trkpt><trkpt lat="45.4650067" lon="10.4636567"><ele>146.0</ele><time>2026-03-20T17:13:25.615Z</time></trkpt><trkpt lat="45.4650683" lon="10.4636233"><ele>146.0</ele><time>2026-03-20T17:13:27.615Z</time></trkpt><trkpt lat="45.465145" lon="10.4636317"><ele>146.0</ele><time>2026-03-20T17:32:25.617Z</time></trkpt><trkpt lat="45.4650817" lon="10.4636517"><ele>146.0</ele><time>2026-03-20T17:32:27.617Z</time></trkpt><trkpt lat="45.4650267" lon="10.4637"><ele>146.0</ele><time>2026-03-20T17:32:29.617Z</time></trkpt><trkpt lat="45.4650033" lon="10.4638"><ele>146.0</ele><time>2026-03-20T17:32:31.617Z</time></trkpt><trkpt lat="45.4650633" lon="10.4638833"><ele>146.0</ele><time>2026-03-20T17:32:33.617Z</time></trkpt><trkpt lat="45.465135" lon="10.463945"><ele>146.0</ele><time>2026-03-20T17:32:35.617Z</time></trkpt><trkpt lat="45.465195" lon="10.4640083"><ele>146.0</ele><time>2026-03-20T17:32:37.617Z</time></trkpt><trkpt lat="45.4652783" lon="10.464105"><ele>146.16666666666666</ele><time>2026-03-20T17:32:39.617Z</time></trkpt><trkpt lat="45.4653067" lon="10.4641883"><ele>146.33333333333331</ele><time>2026-03-20T17:32:40.617Z</time></trkpt><trkpt lat="45.4653333" lon="10.464285"><ele>146.5</ele><time>2026-03-20T17:32:41.617Z</time></trkpt><trkpt lat="45.4653383" lon="10.4643883"><ele>146.66666666666666</ele><time>2026-03-20T17:32:42.618Z</time></trkpt><trkpt lat="45.4653317" lon="10.4645117"><ele>146.83333333333334</ele><time>2026-03-20T17:32:43.617Z</time></trkpt><trkpt lat="45.46533" lon="10.464645"><ele>147.0</ele><time>2026-03-20T17:32:44.617Z</time></trkpt><trkpt lat="45.4653" lon="10.464795"><ele>147.25</ele><time>2026-03-20T17:32:45.617Z</time></trkpt><trkpt lat="45.4652583" lon="10.46495"><ele>147.5</ele><time>2026-03-20T17:32:46.617Z</time></trkpt><trkpt lat="45.4652117" lon="10.46511"><ele>147.75</ele><time>2026-03-20T17:32:47.617Z</time></trkpt><trkpt lat="45.4651467" lon="10.4652583"><ele>148.0</ele><time>2026-03-20T17:32:48.617Z</time></trkpt><trkpt lat="45.4651167" lon="10.4653983"><ele>148.20000000000002</ele><time>2026-03-20T17:32:49.617Z</time></trkpt><trkpt lat="45.465085" lon="10.4655367"><ele>148.4</ele><time>2026-03-20T17:32:50.617Z</time></trkpt><trkpt lat="45.4650517" lon="10.4656783"><ele>148.60000000000002</ele><time>2026-03-20T17:32:51.617Z</time></trkpt><trkpt lat="45.4650317" lon="10.4658083"><ele>148.8</ele><time>2026-03-20T17:32:52.617Z</time></trkpt><trkpt lat="45.4650183" lon="10.4659283"><ele>149.0</ele><time>2026-03-20T17:32:53.617Z</time></trkpt><trkpt lat="45.4650017" lon="10.4660267"><ele>149.0</ele><time>2026-03-20T17:32:54.617Z</time></trkpt><trkpt lat="45.46499" lon="10.4661217"><ele>149.0</ele><time>2026-03-20T17:32:55.617Z</time></trkpt><trkpt lat="45.46497" lon="10.466215"><ele>149.0</ele><time>2026-03-20T17:32:56.617Z</time></trkpt><trkpt lat="45.4649317" lon="10.4663333"><ele>149.0</ele><time>2026-03-20T17:32:57.617Z</time></trkpt><trkpt lat="45.464895" lon="10.4664833"><ele>149.0</ele><time>2026-03-20T17:32:58.617Z</time></trkpt><trkpt lat="45.46485" lon="10.4666483"><ele>149.25</ele><time>2026-03-20T17:32:59.617Z</time></trkpt><trkpt lat="45.4648167" lon="10.4668233"><ele>149.5</ele><time>2026-03-20T17:33:00.617Z</time></trkpt><trkpt lat="45.464775" lon="10.4669933"><ele>149.75</ele><time>2026-03-20T17:33:01.618Z</time></trkpt><trkpt lat="45.4647383" lon="10.4671517"><ele>150.0</ele><time>2026-03-20T17:33:02.617Z</time></trkpt><trkpt lat="45.4647017" lon="10.4672917"><ele>150.0</ele><time>2026-03-20T17:33:03.617Z</time></trkpt><trkpt lat="45.4646667" lon="10.46742"><ele>150.0</ele><time>2026-03-20T17:33:04.617Z</time></trkpt><trkpt lat="45.464635" lon="10.4675533"><ele>150.0</ele><time>2026-03-20T17:33:05.617Z</time></trkpt><trkpt lat="45.4645967" lon="10.46769"><ele>150.0</ele><time>2026-03-20T17:33:06.617Z</time></trkpt><trkpt lat="45.46456" lon="10.4678367"><ele>150.0</ele><time>2026-03-20T17:33:07.617Z</time></trkpt><trkpt lat="45.4645233" lon="10.4679917"><ele>150.75</ele><time>2026-03-20T17:33:08.617Z</time></trkpt><trkpt lat="45.4644933" lon="10.46815"><ele>151.5</ele><time>2026-03-20T17:33:09.617Z</time></trkpt><trkpt lat="45.4644483" lon="10.4683167"><ele>152.25</ele><time>2026-03-20T17:33:10.617Z</time></trkpt><trkpt lat="45.4643933" lon="10.4684967"><ele>153.0</ele><time>2026-03-20T17:33:11.618Z</time></trkpt><trkpt lat="45.4643367" lon="10.46868"><ele>153.25</ele><time>2026-03-20T17:33:12.617Z</time></trkpt><trkpt lat="45.4642817" lon="10.4688783"><ele>153.5</ele><time>2026-03-20T17:33:13.617Z</time></trkpt><trkpt lat="45.464235" lon="10.46906"><ele>153.75</ele><time>2026-03-20T17:33:14.617Z</time></trkpt><trkpt lat="45.4641867" lon="10.4692367"><ele>154.0</ele><time>2026-03-20T17:33:15.617Z</time></trkpt><trkpt lat="45.464135" lon="10.4694017"><ele>154.0</ele><time>2026-03-20T17:33:16.617Z</time></trkpt><trkpt lat="45.4640833" lon="10.4695683"><ele>154.0</ele><time>2026-03-20T17:33:17.618Z</time></trkpt><trkpt lat="45.4640383" lon="10.4697367"><ele>154.0</ele><time>2026-03-20T17:33:18.617Z</time></trkpt><trkpt lat="45.46399" lon="10.4699083"><ele>154.0</ele><time>2026-03-20T17:33:19.617Z</time></trkpt><trkpt lat="45.4639267" lon="10.47008"><ele>154.25</ele><time>2026-03-20T17:33:20.617Z</time></trkpt><trkpt lat="45.463875" lon="10.4702417"><ele>154.5</ele><time>2026-03-20T17:33:21.617Z</time></trkpt><trkpt lat="45.4637867" lon="10.4703983"><ele>154.75</ele><time>2026-03-20T17:33:22.617Z</time></trkpt><trkpt lat="45.4637383" lon="10.4705533"><ele>155.0</ele><time>2026-03-20T17:33:23.617Z</time></trkpt><trkpt lat="45.46369" lon="10.4707083"><ele>155.33333333333331</ele><time>2026-03-20T17:33:24.617Z</time></trkpt><trkpt lat="45.4636533" lon="10.4708483"><ele>155.66666666666666</ele><time>2026-03-20T17:33:25.617Z</time></trkpt><trkpt lat="45.46364" lon="10.470965"><ele>156.0</ele><time>2026-03-20T17:33:26.617Z</time></trkpt><trkpt lat="45.4636483" lon="10.4710767"><ele>156.33333333333334</ele><time>2026-03-20T17:33:27.617Z</time></trkpt><trkpt lat="45.4636483" lon="10.4711683"><ele>156.66666666666669</ele><time>2026-03-20T17:33:28.618Z</time></trkpt><trkpt lat="45.4636483" lon="10.4713133"><ele>157.0</ele><time>2026-03-20T17:33:30.617Z</time></trkpt><trkpt lat="45.4637617" lon="10.4712317"><ele>157.0</ele><time>2026-03-20T17:37:34.617Z</time></trkpt><trkpt lat="45.4637317" lon="10.4711217"><ele>157.0</ele><time>2026-03-20T17:37:47.617Z</time></trkpt><trkpt lat="45.4637" lon="10.4710417"><ele>157.0</ele><time>2026-03-20T17:37:49.617Z</time></trkpt><trkpt lat="45.4636183" lon="10.47102"><ele>157.0</ele><time>2026-03-20T17:37:52.617Z</time></trkpt><trkpt lat="45.4635367" lon="10.4711683"><ele>157.0</ele><time>2026-03-20T17:37:54.618Z</time></trkpt><trkpt lat="45.4634583" lon="10.471405"><ele>157.4</ele><time>2026-03-20T17:37:56.617Z</time></trkpt><trkpt lat="45.4634167" lon="10.4715317"><ele>157.79999999999998</ele><time>2026-03-20T17:37:57.617Z</time></trkpt><trkpt lat="45.4633733" lon="10.4716617"><ele>158.2</ele><time>2026-03-20T17:37:58.617Z</time></trkpt><trkpt lat="45.4633283" lon="10.4717983"><ele>158.6</ele><time>2026-03-20T17:37:59.617Z</time></trkpt><trkpt lat="45.4632767" lon="10.4719567"><ele>159.0</ele><time>2026-03-20T17:38:00.617Z</time></trkpt><trkpt lat="45.4632183" lon="10.4721317"><ele>159.2</ele><time>2026-03-20T17:38:01.617Z</time></trkpt><trkpt lat="45.4631633" lon="10.4723"><ele>159.4</ele><time>2026-03-20T17:38:02.617Z</time></trkpt><trkpt lat="45.463115" lon="10.4724467"><ele>159.6</ele><time>2026-03-20T17:38:03.617Z</time></trkpt><trkpt lat="45.4630733" lon="10.472575"><ele>159.8</ele><time>2026-03-20T17:38:04.618Z</time></trkpt><trkpt lat="45.4630283" lon="10.4727067"><ele>160.0</ele><time>2026-03-20T17:38:05.618Z</time></trkpt><trkpt lat="45.4629833" lon="10.4728467"><ele>160.0</ele><time>2026-03-20T17:38:06.618Z</time></trkpt><trkpt lat="45.4629367" lon="10.472995"><ele>160.0</ele><time>2026-03-20T17:38:07.617Z</time></trkpt><trkpt lat="45.4628833" lon="10.47315"><ele>160.0</ele><time>2026-03-20T17:38:08.618Z</time></trkpt><trkpt lat="45.462835" lon="10.4733"><ele>160.0</ele><time>2026-03-20T17:38:09.618Z</time></trkpt><trkpt lat="45.46279" lon="10.473425"><ele>160.0</ele><time>2026-03-20T17:38:10.617Z</time></trkpt><trkpt lat="45.46274" lon="10.473535"><ele>160.0</ele><time>2026-03-20T17:38:11.618Z</time></trkpt><trkpt lat="45.4627" lon="10.473625"><ele>160.0</ele><time>2026-03-20T17:38:12.618Z</time></trkpt><trkpt lat="45.462645" lon="10.473705"><ele>160.0</ele><time>2026-03-20T17:38:13.617Z</time></trkpt><trkpt lat="45.4625767" lon="10.4737833"><ele>160.0</ele><time>2026-03-20T17:38:14.617Z</time></trkpt><trkpt lat="45.4625" lon="10.4738633"><ele>160.0</ele><time>2026-03-20T17:38:15.617Z</time></trkpt><trkpt lat="45.4624167" lon="10.4739517"><ele>160.0</ele><time>2026-03-20T17:38:16.617Z</time></trkpt><trkpt lat="45.4623383" lon="10.4740517"><ele>160.5</ele><time>2026-03-20T17:38:17.617Z</time></trkpt><trkpt lat="45.462265" lon="10.4741733"><ele>161.0</ele><time>2026-03-20T17:38:18.617Z</time></trkpt><trkpt lat="45.4621783" lon="10.4743033"><ele>161.5</ele><time>2026-03-20T17:38:19.617Z</time></trkpt><trkpt lat="45.4620833" lon="10.4744433"><ele>162.0</ele><time>2026-03-20T17:38:20.617Z</time></trkpt><trkpt lat="45.4619817" lon="10.47457"><ele>161.0</ele><time>2026-03-20T17:38:21.618Z</time></trkpt><trkpt lat="45.4618833" lon="10.4747183"><ele>160.0</ele><time>2026-03-20T17:38:22.617Z</time></trkpt><trkpt lat="45.4617833" lon="10.4748717"><ele>159.0</ele><time>2026-03-20T17:38:23.617Z</time></trkpt><trkpt lat="45.4616867" lon="10.475025"><ele>158.0</ele><time>2026-03-20T17:38:24.617Z</time></trkpt><trkpt lat="45.4615933" lon="10.47517"><ele>158.0</ele><time>2026-03-20T17:38:25.617Z</time></trkpt><trkpt lat="45.4615183" lon="10.47526"><ele>158.0</ele><time>2026-03-20T17:38:26.617Z</time></trkpt><trkpt lat="45.46148" lon="10.4753383"><ele>158.0</ele><time>2026-03-20T17:38:27.617Z</time></trkpt><trkpt lat="45.4614083" lon="10.47539"><ele>158.0</ele><time>2026-03-20T17:38:28.617Z</time></trkpt><trkpt lat="45.4613383" lon="10.4754233"><ele>158.0</ele><time>2026-03-20T17:38:29.617Z</time></trkpt><trkpt lat="45.4611733" lon="10.4753783"><ele>157.75</ele><time>2026-03-20T17:38:31.617Z</time></trkpt><trkpt lat="45.4610733" lon="10.4753033"><ele>157.5</ele><time>2026-03-20T17:38:32.617Z</time></trkpt><trkpt lat="45.4609717" lon="10.47522"><ele>157.25</ele><time>2026-03-20T17:38:33.617Z</time></trkpt><trkpt lat="45.4608567" lon="10.4751233"><ele>157.0</ele><time>2026-03-20T17:38:34.617Z</time></trkpt><trkpt lat="45.460745" lon="10.4750417"><ele>157.0</ele><time>2026-03-20T17:38:35.617Z</time></trkpt><trkpt lat="45.460635" lon="10.4749717"><ele>157.0</ele><time>2026-03-20T17:38:36.617Z</time></trkpt><trkpt lat="45.4605433" lon="10.4749017"><ele>157.0</ele><time>2026-03-20T17:38:37.618Z</time></trkpt><trkpt lat="45.4604667" lon="10.4748317"><ele>157.0</ele><time>2026-03-20T17:38:38.618Z</time></trkpt><trkpt lat="45.4604" lon="10.4747567"><ele>157.0</ele><time>2026-03-20T17:38:39.617Z</time></trkpt><trkpt lat="45.4603367" lon="10.474695"><ele>156.6</ele><time>2026-03-20T17:38:40.617Z</time></trkpt><trkpt lat="45.4602717" lon="10.4746417"><ele>156.2</ele><time>2026-03-20T17:38:41.617Z</time></trkpt><trkpt lat="45.4602083" lon="10.4746233"><ele>155.8</ele><time>2026-03-20T17:38:42.618Z</time></trkpt><trkpt lat="45.460095" lon="10.474705"><ele>155.4</ele><time>2026-03-20T17:38:44.617Z</time></trkpt><trkpt lat="45.4600367" lon="10.4747817"><ele>155.0</ele><time>2026-03-20T17:38:45.617Z</time></trkpt><trkpt lat="45.4599933" lon="10.4749533"><ele>155.0</ele><time>2026-03-20T17:38:46.617Z</time></trkpt><trkpt lat="45.4599417" lon="10.47515"><ele>155.0</ele><time>2026-03-20T17:38:47.617Z</time></trkpt><trkpt lat="45.4598917" lon="10.4753383"><ele>155.0</ele><time>2026-03-20T17:38:48.617Z</time></trkpt><trkpt lat="45.459845" lon="10.4755333"><ele>155.0</ele><time>2026-03-20T17:38:49.617Z</time></trkpt><trkpt lat="45.4597767" lon="10.47571"><ele>155.0</ele><time>2026-03-20T17:38:50.618Z</time></trkpt><trkpt lat="45.459705" lon="10.475875"><ele>155.0</ele><time>2026-03-20T17:38:51.617Z</time></trkpt><trkpt lat="45.4596483" lon="10.476035"><ele>155.0</ele><time>2026-03-20T17:38:52.617Z</time></trkpt><trkpt lat="45.4595933" lon="10.4761783"><ele>155.0</ele><time>2026-03-20T17:38:53.618Z</time></trkpt><trkpt lat="45.4595567" lon="10.4763317"><ele>154.75</ele><time>2026-03-20T17:38:54.617Z</time></trkpt><trkpt lat="45.4594983" lon="10.47649"><ele>154.5</ele><time>2026-03-20T17:38:55.618Z</time></trkpt><trkpt lat="45.459445" lon="10.4766433"><ele>154.25</ele><time>2026-03-20T17:38:56.617Z</time></trkpt><trkpt lat="45.4593867" lon="10.4767867"><ele>154.0</ele><time>2026-03-20T17:38:57.617Z</time></trkpt><trkpt lat="45.45932" lon="10.47692"><ele>154.0</ele><time>2026-03-20T17:38:58.617Z</time></trkpt><trkpt lat="45.4592517" lon="10.477055"><ele>154.0</ele><time>2026-03-20T17:38:59.617Z</time></trkpt><trkpt lat="45.459185" lon="10.477205"><ele>154.0</ele><time>2026-03-20T17:39:00.617Z</time></trkpt><trkpt lat="45.4591217" lon="10.4773583"><ele>154.0</ele><time>2026-03-20T17:39:01.617Z</time></trkpt><trkpt lat="45.459055" lon="10.4775117"><ele>154.0</ele><time>2026-03-20T17:39:02.617Z</time></trkpt><trkpt lat="45.45899" lon="10.47768"><ele>154.0</ele><time>2026-03-20T17:39:03.617Z</time></trkpt><trkpt lat="45.458935" lon="10.477835"><ele>154.0</ele><time>2026-03-20T17:39:04.617Z</time></trkpt><trkpt lat="45.4588783" lon="10.4779917"><ele>154.0</ele><time>2026-03-20T17:39:05.617Z</time></trkpt><trkpt lat="45.45881" lon="10.4781567"><ele>154.5</ele><time>2026-03-20T17:39:06.617Z</time></trkpt><trkpt lat="45.4587567" lon="10.4783267"><ele>155.0</ele><time>2026-03-20T17:39:07.617Z</time></trkpt><trkpt lat="45.4587033" lon="10.478495"><ele>155.5</ele><time>2026-03-20T17:39:08.617Z</time></trkpt><trkpt lat="45.4586567" lon="10.4786733"><ele>156.0</ele><time>2026-03-20T17:39:09.617Z</time></trkpt><trkpt lat="45.4586067" lon="10.4788483"><ele>156.5</ele><time>2026-03-20T17:39:10.617Z</time></trkpt><trkpt lat="45.4585567" lon="10.4790167"><ele>157.0</ele><time>2026-03-20T17:39:11.617Z</time></trkpt><trkpt lat="45.4584983" lon="10.4791933"><ele>157.5</ele><time>2026-03-20T17:39:12.618Z</time></trkpt><trkpt lat="45.4584467" lon="10.4793667"><ele>158.0</ele><time>2026-03-20T17:39:13.617Z</time></trkpt><trkpt lat="45.4583783" lon="10.479505"><ele>158.0</ele><time>2026-03-20T17:39:14.617Z</time></trkpt><trkpt lat="45.45833" lon="10.4796633"><ele>158.0</ele><time>2026-03-20T17:39:15.617Z</time></trkpt><trkpt lat="45.4582717" lon="10.4798117"><ele>158.0</ele><time>2026-03-20T17:39:16.618Z</time></trkpt><trkpt lat="45.458215" lon="10.4799433"><ele>158.0</ele><time>2026-03-20T17:39:17.617Z</time></trkpt><trkpt lat="45.4581433" lon="10.4800533"><ele>158.0</ele><time>2026-03-20T17:39:18.617Z</time></trkpt><trkpt lat="45.45806" lon="10.4801583"><ele>158.0</ele><time>2026-03-20T17:39:19.618Z</time></trkpt><trkpt lat="45.45797" lon="10.4802683"><ele>158.0</ele><time>2026-03-20T17:39:20.617Z</time></trkpt><trkpt lat="45.4578833" lon="10.4803717"><ele>158.0</ele><time>2026-03-20T17:39:21.617Z</time></trkpt><trkpt lat="45.457795" lon="10.4804717"><ele>157.75</ele><time>2026-03-20T17:39:22.617Z</time></trkpt><trkpt lat="45.4577067" lon="10.48057"><ele>157.5</ele><time>2026-03-20T17:39:23.618Z</time></trkpt><trkpt lat="45.45763" lon="10.4806733"><ele>157.25</ele><time>2026-03-20T17:39:24.617Z</time></trkpt><trkpt lat="45.4575367" lon="10.4807833"><ele>157.0</ele><time>2026-03-20T17:39:25.617Z</time></trkpt><trkpt lat="45.4574467" lon="10.4808867"><ele>157.0</ele><time>2026-03-20T17:39:26.617Z</time></trkpt><trkpt lat="45.4573617" lon="10.48099"><ele>157.0</ele><time>2026-03-20T17:39:27.617Z</time></trkpt><trkpt lat="45.4572683" lon="10.4811"><ele>157.0</ele><time>2026-03-20T17:39:28.617Z</time></trkpt><trkpt lat="45.457205" lon="10.481225"><ele>157.0</ele><time>2026-03-20T17:39:29.617Z</time></trkpt><trkpt lat="45.4571567" lon="10.481375"><ele>157.0</ele><time>2026-03-20T17:39:30.617Z</time></trkpt><trkpt lat="45.457135" lon="10.4815383"><ele>157.0</ele><time>2026-03-20T17:39:31.617Z</time></trkpt><trkpt lat="45.4571133" lon="10.4817217"><ele>157.0</ele><time>2026-03-20T17:39:32.617Z</time></trkpt><trkpt lat="45.4571017" lon="10.4818883"><ele>157.0</ele><time>2026-03-20T17:39:33.617Z</time></trkpt><trkpt lat="45.4570917" lon="10.4820367"><ele>156.79999999999998</ele><time>2026-03-20T17:39:34.617Z</time></trkpt><trkpt lat="45.4570883" lon="10.4821817"><ele>156.6</ele><time>2026-03-20T17:39:35.617Z</time></trkpt><trkpt lat="45.4570883" lon="10.4823333"><ele>156.39999999999998</ele><time>2026-03-20T17:39:36.617Z</time></trkpt><trkpt lat="45.4570867" lon="10.4825"><ele>156.2</ele><time>2026-03-20T17:39:37.618Z</time></trkpt><trkpt lat="45.4570767" lon="10.4826767"><ele>156.0</ele><time>2026-03-20T17:39:38.617Z</time></trkpt><trkpt lat="45.4570717" lon="10.4828417"><ele>156.2</ele><time>2026-03-20T17:39:39.617Z</time></trkpt><trkpt lat="45.4570667" lon="10.48299"><ele>156.39999999999998</ele><time>2026-03-20T17:39:40.617Z</time></trkpt><trkpt lat="45.45707" lon="10.4831267"><ele>156.6</ele><time>2026-03-20T17:39:41.617Z</time></trkpt><trkpt lat="45.4570717" lon="10.4832383"><ele>156.79999999999998</ele><time>2026-03-20T17:39:42.617Z</time></trkpt><trkpt lat="45.4570833" lon="10.4833533"><ele>157.0</ele><time>2026-03-20T17:39:44.617Z</time></trkpt><trkpt lat="45.45707" lon="10.483495"><ele>157.0</ele><time>2026-03-20T17:39:55.617Z</time></trkpt><trkpt lat="45.457075" lon="10.4836583"><ele>157.0</ele><time>2026-03-20T17:39:57.617Z</time></trkpt><trkpt lat="45.457075" lon="10.48375"><ele>157.0</ele><time>2026-03-20T17:39:58.617Z</time></trkpt><trkpt lat="45.45708" lon="10.483865"><ele>157.0</ele><time>2026-03-20T17:39:59.617Z</time></trkpt><trkpt lat="45.457085" lon="10.48397"><ele>157.0</ele><time>2026-03-20T17:40:00.617Z</time></trkpt><trkpt lat="45.4570883" lon="10.4840783"><ele>157.0</ele><time>2026-03-20T17:40:01.618Z</time></trkpt><trkpt lat="45.4571" lon="10.4841733"><ele>156.83333333333334</ele><time>2026-03-20T17:40:02.617Z</time></trkpt><trkpt lat="45.4571067" lon="10.4842933"><ele>156.66666666666669</ele><time>2026-03-20T17:40:03.617Z</time></trkpt><trkpt lat="45.4571283" lon="10.4843933"><ele>156.5</ele><time>2026-03-20T17:40:04.617Z</time></trkpt><trkpt lat="45.457165" lon="10.4845033"><ele>156.33333333333334</ele><time>2026-03-20T17:40:05.617Z</time></trkpt><trkpt lat="45.4572067" lon="10.484605"><ele>156.16666666666666</ele><time>2026-03-20T17:40:06.617Z</time></trkpt><trkpt lat="45.4572483" lon="10.4847083"><ele>156.0</ele><time>2026-03-20T17:40:07.617Z</time></trkpt><trkpt lat="45.4572833" lon="10.4848083"><ele>157.83333333333334</ele><time>2026-03-20T17:40:08.617Z</time></trkpt><trkpt lat="45.4573233" lon="10.4849"><ele>159.66666666666666</ele><time>2026-03-20T17:40:09.617Z</time></trkpt><trkpt lat="45.45736" lon="10.4849967"><ele>161.5</ele><time>2026-03-20T17:40:10.617Z</time></trkpt><trkpt lat="45.4573833" lon="10.4851133"><ele>163.33333333333331</ele><time>2026-03-20T17:40:11.617Z</time></trkpt><trkpt lat="45.4573933" lon="10.4852617"><ele>165.16666666666666</ele><time>2026-03-20T17:40:12.617Z</time></trkpt><trkpt lat="45.4574" lon="10.4853917"><ele>167.0</ele><time>2026-03-20T17:40:13.617Z</time></trkpt><trkpt lat="45.4573983" lon="10.485525"><ele>167.0</ele><time>2026-03-20T17:40:14.617Z</time></trkpt><trkpt lat="45.4574067" lon="10.4856567"><ele>167.0</ele><time>2026-03-20T17:40:15.617Z</time></trkpt><trkpt lat="45.45743" lon="10.4857983"><ele>167.0</ele><time>2026-03-20T17:40:16.617Z</time></trkpt><trkpt lat="45.4574633" lon="10.4859233"><ele>167.0</ele><time>2026-03-20T17:40:17.617Z</time></trkpt><trkpt lat="45.4575133" lon="10.4860517"><ele>167.0</ele><time>2026-03-20T17:40:18.617Z</time></trkpt><trkpt lat="45.45757" lon="10.4861667"><ele>166.16666666666666</ele><time>2026-03-20T17:40:19.618Z</time></trkpt><trkpt lat="45.4576267" lon="10.4862717"><ele>165.33333333333331</ele><time>2026-03-20T17:40:20.618Z</time></trkpt><trkpt lat="45.4576817" lon="10.4863567"><ele>164.5</ele><time>2026-03-20T17:40:21.617Z</time></trkpt><trkpt lat="45.45772" lon="10.4864583"><ele>163.66666666666666</ele><time>2026-03-20T17:40:22.617Z</time></trkpt><trkpt lat="45.4577467" lon="10.4865617"><ele>162.83333333333334</ele><time>2026-03-20T17:40:23.618Z</time></trkpt><trkpt lat="45.4578083" lon="10.4867033"><ele>162.0</ele><time>2026-03-20T17:40:25.617Z</time></trkpt><trkpt lat="45.4578933" lon="10.486785"><ele>164.2</ele><time>2026-03-20T17:40:27.617Z</time></trkpt><trkpt lat="45.4579633" lon="10.4868033"><ele>166.39999999999998</ele><time>2026-03-20T17:40:28.617Z</time></trkpt><trkpt lat="45.4580567" lon="10.4868317"><ele>168.60000000000002</ele><time>2026-03-20T17:40:29.617Z</time></trkpt><trkpt lat="45.458155" lon="10.4868583"><ele>170.8</ele><time>2026-03-20T17:40:30.617Z</time></trkpt><trkpt lat="45.4582583" lon="10.486885"><ele>173.0</ele><time>2026-03-20T17:40:31.617Z</time></trkpt><trkpt lat="45.4583717" lon="10.4869017"><ele>173.0</ele><time>2026-03-20T17:40:32.617Z</time></trkpt><trkpt lat="45.4584817" lon="10.4869217"><ele>173.0</ele><time>2026-03-20T17:40:33.617Z</time></trkpt><trkpt lat="45.4585883" lon="10.48694"><ele>173.0</ele><time>2026-03-20T17:40:34.617Z</time></trkpt><trkpt lat="45.4586967" lon="10.48695"><ele>173.0</ele><time>2026-03-20T17:40:35.617Z</time></trkpt><trkpt lat="45.458805" lon="10.4869333"><ele>173.0</ele><time>2026-03-20T17:40:36.617Z</time></trkpt><trkpt lat="45.4589117" lon="10.4869183"><ele>173.60000000000002</ele><time>2026-03-20T17:40:37.617Z</time></trkpt><trkpt lat="45.4590117" lon="10.4869117"><ele>174.20000000000002</ele><time>2026-03-20T17:40:38.617Z</time></trkpt><trkpt lat="45.4591033" lon="10.486915"><ele>174.8</ele><time>2026-03-20T17:40:39.617Z</time></trkpt><trkpt lat="45.4591917" lon="10.4869217"><ele>175.4</ele><time>2026-03-20T17:40:40.617Z</time></trkpt><trkpt lat="45.4592717" lon="10.4869733"><ele>176.0</ele><time>2026-03-20T17:40:41.617Z</time></trkpt><trkpt lat="45.4593483" lon="10.48703"><ele>176.0</ele><time>2026-03-20T17:40:42.617Z</time></trkpt><trkpt lat="45.459435" lon="10.487065"><ele>176.0</ele><time>2026-03-20T17:40:43.617Z</time></trkpt><trkpt lat="45.45951" lon="10.4870917"><ele>176.0</ele><time>2026-03-20T17:40:44.617Z</time></trkpt><trkpt lat="45.459575" lon="10.487105"><ele>176.0</ele><time>2026-03-20T17:40:45.617Z</time></trkpt><trkpt lat="45.459695" lon="10.48711"><ele>176.0</ele><time>2026-03-20T17:40:47.617Z</time></trkpt><trkpt lat="45.4597633" lon="10.4871167"><ele>176.0</ele><time>2026-03-20T17:40:48.617Z</time></trkpt><trkpt lat="45.4598533" lon="10.4871433"><ele>174.5</ele><time>2026-03-20T17:40:49.617Z</time></trkpt><trkpt lat="45.4599467" lon="10.487175"><ele>173.0</ele><time>2026-03-20T17:40:50.617Z</time></trkpt><trkpt lat="45.4600733" lon="10.4872233"><ele>171.5</ele><time>2026-03-20T17:40:51.617Z</time></trkpt><trkpt lat="45.4602017" lon="10.487275"><ele>170.0</ele><time>2026-03-20T17:40:52.617Z</time></trkpt><trkpt lat="45.460345" lon="10.487355"><ele>174.33333333333331</ele><time>2026-03-20T17:40:53.617Z</time></trkpt><trkpt lat="45.4605" lon="10.4874467"><ele>178.66666666666666</ele><time>2026-03-20T17:40:54.617Z</time></trkpt><trkpt lat="45.46067" lon="10.487545"><ele>183.0</ele><time>2026-03-20T17:40:55.618Z</time></trkpt><trkpt lat="45.4608233" lon="10.4876567"><ele>183.0</ele><time>2026-03-20T17:40:56.617Z</time></trkpt><trkpt lat="45.460975" lon="10.4877933"><ele>183.0</ele><time>2026-03-20T17:40:57.617Z</time></trkpt><trkpt lat="45.46112" lon="10.4879"><ele>183.0</ele><time>2026-03-20T17:40:58.617Z</time></trkpt><trkpt lat="45.4612517" lon="10.48803"><ele>180.66666666666666</ele><time>2026-03-20T17:40:59.617Z</time></trkpt><trkpt lat="45.4613717" lon="10.4881717"><ele>178.33333333333331</ele><time>2026-03-20T17:41:00.617Z</time></trkpt><trkpt lat="45.4614517" lon="10.48837"><ele>176.0</ele><time>2026-03-20T17:41:01.617Z</time></trkpt><trkpt lat="45.4615317" lon="10.488525"><ele>176.0</ele><time>2026-03-20T17:41:02.617Z</time></trkpt><trkpt lat="45.4615867" lon="10.4887033"><ele>176.0</ele><time>2026-03-20T17:41:03.617Z</time></trkpt><trkpt lat="45.4616317" lon="10.48888"><ele>176.0</ele><time>2026-03-20T17:41:04.617Z</time></trkpt><trkpt lat="45.4616383" lon="10.4890667"><ele>176.0</ele><time>2026-03-20T17:41:05.617Z</time></trkpt><trkpt lat="45.461625" lon="10.4892283"><ele>174.0</ele><time>2026-03-20T17:41:06.617Z</time></trkpt><trkpt lat="45.4616083" lon="10.48937"><ele>172.0</ele><time>2026-03-20T17:41:07.617Z</time></trkpt><trkpt lat="45.4615317" lon="10.4895267"><ele>170.0</ele><time>2026-03-20T17:41:08.617Z</time></trkpt><trkpt lat="45.4614633" lon="10.48967"><ele>168.0</ele><time>2026-03-20T17:41:09.617Z</time></trkpt><trkpt lat="45.4614033" lon="10.4898433"><ele>167.5</ele><time>2026-03-20T17:41:10.617Z</time></trkpt><trkpt lat="45.4613583" lon="10.4900167"><ele>167.0</ele><time>2026-03-20T17:41:11.617Z</time></trkpt><trkpt lat="45.4612917" lon="10.49018"><ele>166.5</ele><time>2026-03-20T17:41:12.617Z</time></trkpt><trkpt lat="45.4612117" lon="10.4903317"><ele>166.0</ele><time>2026-03-20T17:41:13.617Z</time></trkpt><trkpt lat="45.4611283" lon="10.4904417"><ele>165.60000000000002</ele><time>2026-03-20T17:41:14.617Z</time></trkpt><trkpt lat="45.4610267" lon="10.490505"><ele>165.2</ele><time>2026-03-20T17:41:15.617Z</time></trkpt><trkpt lat="45.460925" lon="10.49053"><ele>164.8</ele><time>2026-03-20T17:41:16.617Z</time></trkpt><trkpt lat="45.4608267" lon="10.4905583"><ele>164.39999999999998</ele><time>2026-03-20T17:41:17.618Z</time></trkpt><trkpt lat="45.4607383" lon="10.4905717"><ele>164.0</ele><time>2026-03-20T17:41:18.617Z</time></trkpt><trkpt lat="45.46067" lon="10.490645"><ele>164.0</ele><time>2026-03-20T17:41:19.617Z</time></trkpt><trkpt lat="45.4606167" lon="10.4907383"><ele>164.0</ele><time>2026-03-20T17:41:20.618Z</time></trkpt><trkpt lat="45.46058" lon="10.4908333"><ele>164.0</ele><time>2026-03-20T17:41:21.617Z</time></trkpt><trkpt lat="45.4605733" lon="10.4909633"><ele>164.0</ele><time>2026-03-20T17:41:22.617Z</time></trkpt><trkpt lat="45.4605817" lon="10.4911017"><ele>164.0</ele><time>2026-03-20T17:41:23.617Z</time></trkpt><trkpt lat="45.460615" lon="10.4912817"><ele>163.75</ele><time>2026-03-20T17:41:24.617Z</time></trkpt><trkpt lat="45.4606317" lon="10.4914733"><ele>163.5</ele><time>2026-03-20T17:41:25.617Z</time></trkpt><trkpt lat="45.46064" lon="10.49166"><ele>163.25</ele><time>2026-03-20T17:41:26.617Z</time></trkpt><trkpt lat="45.46064" lon="10.4918117"><ele>163.0</ele><time>2026-03-20T17:41:27.617Z</time></trkpt><trkpt lat="45.4606367" lon="10.4919667"><ele>163.2</ele><time>2026-03-20T17:41:28.617Z</time></trkpt><trkpt lat="45.4606267" lon="10.4921117"><ele>163.4</ele><time>2026-03-20T17:41:29.617Z</time></trkpt><trkpt lat="45.4606117" lon="10.4922617"><ele>163.6</ele><time>2026-03-20T17:41:30.618Z</time></trkpt><trkpt lat="45.4605933" lon="10.49241"><ele>163.79999999999998</ele><time>2026-03-20T17:41:31.617Z</time></trkpt><trkpt lat="45.4605733" lon="10.4925567"><ele>164.0</ele><time>2026-03-20T17:41:32.617Z</time></trkpt><trkpt lat="45.4605483" lon="10.4927083"><ele>164.0</ele><time>2026-03-20T17:41:33.617Z</time></trkpt><trkpt lat="45.4605217" lon="10.492875"><ele>164.0</ele><time>2026-03-20T17:41:34.617Z</time></trkpt><trkpt lat="45.4604933" lon="10.493055"><ele>164.0</ele><time>2026-03-20T17:41:35.618Z</time></trkpt><trkpt lat="45.4604633" lon="10.493225"><ele>164.0</ele><time>2026-03-20T17:41:36.617Z</time></trkpt><trkpt lat="45.4604317" lon="10.4933917"><ele>163.5</ele><time>2026-03-20T17:41:37.618Z</time></trkpt><trkpt lat="45.4603983" lon="10.4935483"><ele>163.0</ele><time>2026-03-20T17:41:38.617Z</time></trkpt><trkpt lat="45.460385" lon="10.493705"><ele>162.5</ele><time>2026-03-20T17:41:39.617Z</time></trkpt><trkpt lat="45.460385" lon="10.4938633"><ele>162.0</ele><time>2026-03-20T17:41:40.618Z</time></trkpt><trkpt lat="45.4604033" lon="10.49403"><ele>162.25</ele><time>2026-03-20T17:41:41.617Z</time></trkpt><trkpt lat="45.4604467" lon="10.4941983"><ele>162.5</ele><time>2026-03-20T17:41:42.617Z</time></trkpt><trkpt lat="45.4605083" lon="10.49436"><ele>162.75</ele><time>2026-03-20T17:41:43.618Z</time></trkpt><trkpt lat="45.460585" lon="10.494495"><ele>163.0</ele><time>2026-03-20T17:41:44.617Z</time></trkpt><trkpt lat="45.460675" lon="10.4946133"><ele>162.0</ele><time>2026-03-20T17:41:45.617Z</time></trkpt><trkpt lat="45.46077" lon="10.4947067"><ele>161.0</ele><time>2026-03-20T17:41:46.617Z</time></trkpt><trkpt lat="45.4608683" lon="10.49479"><ele>160.0</ele><time>2026-03-20T17:41:47.617Z</time></trkpt><trkpt lat="45.4609733" lon="10.494885"><ele>159.0</ele><time>2026-03-20T17:41:48.617Z</time></trkpt><trkpt lat="45.4610867" lon="10.4949767"><ele>159.0</ele><time>2026-03-20T17:41:49.617Z</time></trkpt><trkpt lat="45.4611983" lon="10.495055"><ele>159.0</ele><time>2026-03-20T17:41:50.617Z</time></trkpt><trkpt lat="45.4613067" lon="10.4951133"><ele>159.0</ele><time>2026-03-20T17:41:51.617Z</time></trkpt><trkpt lat="45.4614117" lon="10.4951733"><ele>159.0</ele><time>2026-03-20T17:41:52.617Z</time></trkpt><trkpt lat="45.4615283" lon="10.495235"><ele>159.0</ele><time>2026-03-20T17:41:53.617Z</time></trkpt><trkpt lat="45.4616183" lon="10.4953117"><ele>159.0</ele><time>2026-03-20T17:41:54.617Z</time></trkpt><trkpt lat="45.46169" lon="10.4953933"><ele>159.0</ele><time>2026-03-20T17:41:55.617Z</time></trkpt><trkpt lat="45.4617433" lon="10.4954733"><ele>159.0</ele><time>2026-03-20T17:41:56.617Z</time></trkpt><trkpt lat="45.461805" lon="10.4955433"><ele>159.0</ele><time>2026-03-20T17:41:57.617Z</time></trkpt><trkpt lat="45.4618667" lon="10.4955933"><ele>159.0</ele><time>2026-03-20T17:41:58.617Z</time></trkpt><trkpt lat="45.4619333" lon="10.4956317"><ele>159.4</ele><time>2026-03-20T17:41:59.617Z</time></trkpt><trkpt lat="45.4620317" lon="10.4956533"><ele>159.8</ele><time>2026-03-20T17:42:01.617Z</time></trkpt><trkpt lat="45.46212" lon="10.495625"><ele>160.20000000000002</ele><time>2026-03-20T17:42:03.617Z</time></trkpt><trkpt lat="45.4622067" lon="10.4955983"><ele>160.60000000000002</ele><time>2026-03-20T17:42:05.617Z</time></trkpt><trkpt lat="45.4623067" lon="10.4956383"><ele>161.0</ele><time>2026-03-20T17:42:07.617Z</time></trkpt><trkpt lat="45.462365" lon="10.495695"><ele>160.0</ele><time>2026-03-20T17:42:08.617Z</time></trkpt><trkpt lat="45.4624367" lon="10.49575"><ele>159.0</ele><time>2026-03-20T17:42:09.617Z</time></trkpt><trkpt lat="45.46252" lon="10.49581"><ele>158.0</ele><time>2026-03-20T17:42:10.617Z</time></trkpt><trkpt lat="45.4625967" lon="10.49587"><ele>157.0</ele><time>2026-03-20T17:42:11.618Z</time></trkpt><trkpt lat="45.46268" lon="10.49594"><ele>156.0</ele><time>2026-03-20T17:42:12.617Z</time></trkpt><trkpt lat="45.46276" lon="10.4960117"><ele>156.0</ele><time>2026-03-20T17:42:13.617Z</time></trkpt><trkpt lat="45.4628417" lon="10.496085"><ele>156.0</ele><time>2026-03-20T17:42:14.617Z</time></trkpt><trkpt lat="45.4629167" lon="10.49618"><ele>156.0</ele><time>2026-03-20T17:42:15.618Z</time></trkpt><trkpt lat="45.462995" lon="10.49628"><ele>156.0</ele><time>2026-03-20T17:42:16.617Z</time></trkpt><trkpt lat="45.4630783" lon="10.496395"><ele>156.0</ele><time>2026-03-20T17:42:17.617Z</time></trkpt><trkpt lat="45.463165" lon="10.49652"><ele>156.5</ele><time>2026-03-20T17:42:18.617Z</time></trkpt><trkpt lat="45.4632517" lon="10.496635"><ele>157.0</ele><time>2026-03-20T17:42:19.617Z</time></trkpt><trkpt lat="45.4633333" lon="10.4967567"><ele>157.5</ele><time>2026-03-20T17:42:20.617Z</time></trkpt><trkpt lat="45.4634267" lon="10.4968533"><ele>158.0</ele><time>2026-03-20T17:42:21.617Z</time></trkpt><trkpt lat="45.4635217" lon="10.49694"><ele>158.0</ele><time>2026-03-20T17:42:22.618Z</time></trkpt><trkpt lat="45.4636283" lon="10.4970317"><ele>158.0</ele><time>2026-03-20T17:42:23.618Z</time></trkpt><trkpt lat="45.4637433" lon="10.4971117"><ele>158.0</ele><time>2026-03-20T17:42:24.618Z</time></trkpt><trkpt lat="45.4638567" lon="10.497205"><ele>158.0</ele><time>2026-03-20T17:42:25.617Z</time></trkpt><trkpt lat="45.46396" lon="10.4973067"><ele>159.0</ele><time>2026-03-20T17:42:26.617Z</time></trkpt><trkpt lat="45.4640667" lon="10.497395"><ele>160.0</ele><time>2026-03-20T17:42:27.618Z</time></trkpt><trkpt lat="45.464165" lon="10.4975067"><ele>161.0</ele><time>2026-03-20T17:42:28.618Z</time></trkpt><trkpt lat="45.4642633" lon="10.497635"><ele>162.0</ele><time>2026-03-20T17:42:29.617Z</time></trkpt><trkpt lat="45.4643667" lon="10.4977817"><ele>160.5</ele><time>2026-03-20T17:42:30.617Z</time></trkpt><trkpt lat="45.4644667" lon="10.4979333"><ele>159.0</ele><time>2026-03-20T17:42:31.617Z</time></trkpt><trkpt lat="45.4645633" lon="10.4980817"><ele>157.5</ele><time>2026-03-20T17:42:32.617Z</time></trkpt><trkpt lat="45.4646717" lon="10.4982133"><ele>156.0</ele><time>2026-03-20T17:42:33.617Z</time></trkpt><trkpt lat="45.4647583" lon="10.4983517"><ele>155.0</ele><time>2026-03-20T17:42:34.617Z</time></trkpt><trkpt lat="45.46486" lon="10.4984967"><ele>154.0</ele><time>2026-03-20T17:42:35.617Z</time></trkpt><trkpt lat="45.4649583" lon="10.4986483"><ele>153.0</ele><time>2026-03-20T17:42:36.617Z</time></trkpt><trkpt lat="45.465065" lon="10.4987917"><ele>152.0</ele><time>2026-03-20T17:42:37.618Z</time></trkpt><trkpt lat="45.46514" lon="10.49891"><ele>151.0</ele><time>2026-03-20T17:42:38.617Z</time></trkpt><trkpt lat="45.4652333" lon="10.4990583"><ele>150.0</ele><time>2026-03-20T17:42:39.617Z</time></trkpt><trkpt lat="45.4653367" lon="10.4992033"><ele>149.0</ele><time>2026-03-20T17:42:40.617Z</time></trkpt><trkpt lat="45.4654417" lon="10.499345"><ele>148.0</ele><time>2026-03-20T17:42:41.617Z</time></trkpt><trkpt lat="45.4655483" lon="10.4994733"><ele>146.33333333333334</ele><time>2026-03-20T17:42:42.617Z</time></trkpt><trkpt lat="45.4656517" lon="10.4996217"><ele>144.66666666666666</ele><time>2026-03-20T17:42:43.617Z</time></trkpt><trkpt lat="45.4657517" lon="10.499785"><ele>143.0</ele><time>2026-03-20T17:42:44.617Z</time></trkpt><trkpt lat="45.46584" lon="10.49996"><ele>143.0</ele><time>2026-03-20T17:42:45.617Z</time></trkpt><trkpt lat="45.4659333" lon="10.5001533"><ele>143.0</ele><time>2026-03-20T17:42:46.617Z</time></trkpt><trkpt lat="45.4660083" lon="10.50036"><ele>143.0</ele><time>2026-03-20T17:42:47.618Z</time></trkpt><trkpt lat="45.4660733" lon="10.500565"><ele>142.66666666666666</ele><time>2026-03-20T17:42:48.617Z</time></trkpt><trkpt lat="45.4661533" lon="10.5007583"><ele>142.33333333333334</ele><time>2026-03-20T17:42:49.618Z</time></trkpt><trkpt lat="45.466245" lon="10.5009083"><ele>142.0</ele><time>2026-03-20T17:42:50.617Z</time></trkpt><trkpt lat="45.4663567" lon="10.5010733"><ele>142.0</ele><time>2026-03-20T17:42:51.617Z</time></trkpt><trkpt lat="45.46645" lon="10.5012267"><ele>142.0</ele><time>2026-03-20T17:42:52.617Z</time></trkpt><trkpt lat="45.4665217" lon="10.5013767"><ele>142.0</ele><time>2026-03-20T17:42:53.617Z</time></trkpt><trkpt lat="45.4665867" lon="10.5015683"><ele>142.0</ele><time>2026-03-20T17:42:54.618Z</time></trkpt><trkpt lat="45.466595" lon="10.5017467"><ele>142.0</ele><time>2026-03-20T17:42:55.617Z</time></trkpt><trkpt lat="45.466605" lon="10.5019267"><ele>142.0</ele><time>2026-03-20T17:42:56.617Z</time></trkpt><trkpt lat="45.46661" lon="10.5020867"><ele>142.0</ele><time>2026-03-20T17:42:57.617Z</time></trkpt><trkpt lat="45.4666" lon="10.5022417"><ele>142.0</ele><time>2026-03-20T17:42:58.617Z</time></trkpt><trkpt lat="45.4665933" lon="10.5023833"><ele>142.0</ele><time>2026-03-20T17:42:59.617Z</time></trkpt><trkpt lat="45.4665883" lon="10.502485"><ele>142.0</ele><time>2026-03-20T17:43:00.617Z</time></trkpt><trkpt lat="45.4665783" lon="10.5025933"><ele>142.0</ele><time>2026-03-20T17:43:03.617Z</time></trkpt><trkpt lat="45.466605" lon="10.5026917"><ele>142.0</ele><time>2026-03-20T17:43:14.617Z</time></trkpt><trkpt lat="45.4666783" lon="10.5027433"><ele>142.0</ele><time>2026-03-20T17:43:16.617Z</time></trkpt><trkpt lat="45.4668033" lon="10.502715"><ele>142.0</ele><time>2026-03-20T17:43:18.617Z</time></trkpt><trkpt lat="45.4668733" lon="10.5026833"><ele>142.0</ele><time>2026-03-20T17:43:19.617Z</time></trkpt><trkpt lat="45.466965" lon="10.50265"><ele>142.0</ele><time>2026-03-20T17:43:20.617Z</time></trkpt><trkpt lat="45.4670583" lon="10.5026117"><ele>142.0</ele><time>2026-03-20T17:43:21.617Z</time></trkpt><trkpt lat="45.4671533" lon="10.502575"><ele>142.0</ele><time>2026-03-20T17:43:22.617Z</time></trkpt><trkpt lat="45.467255" lon="10.5025367"><ele>142.0</ele><time>2026-03-20T17:43:23.617Z</time></trkpt><trkpt lat="45.4673483" lon="10.5024983"><ele>142.0</ele><time>2026-03-20T17:43:24.617Z</time></trkpt><trkpt lat="45.4674567" lon="10.5024667"><ele>142.75</ele><time>2026-03-20T17:43:25.617Z</time></trkpt><trkpt lat="45.4675733" lon="10.502465"><ele>143.5</ele><time>2026-03-20T17:43:26.617Z</time></trkpt><trkpt lat="45.4676867" lon="10.5024683"><ele>144.25</ele><time>2026-03-20T17:43:27.617Z</time></trkpt><trkpt lat="45.467805" lon="10.5024533"><ele>145.0</ele><time>2026-03-20T17:43:28.618Z</time></trkpt><trkpt lat="45.4679167" lon="10.5024417"><ele>145.0</ele><time>2026-03-20T17:43:29.617Z</time></trkpt><trkpt lat="45.4680317" lon="10.5024217"><ele>145.0</ele><time>2026-03-20T17:43:30.617Z</time></trkpt><trkpt lat="45.4681567" lon="10.5024433"><ele>145.0</ele><time>2026-03-20T17:43:31.617Z</time></trkpt><trkpt lat="45.4682883" lon="10.5024667"><ele>145.0</ele><time>2026-03-20T17:43:32.617Z</time></trkpt><trkpt lat="45.4684117" lon="10.5025033"><ele>145.0</ele><time>2026-03-20T17:43:33.617Z</time></trkpt><trkpt lat="45.4685233" lon="10.5025383"><ele>145.0</ele><time>2026-03-20T17:43:34.617Z</time></trkpt><trkpt lat="45.46863" lon="10.5025683"><ele>145.0</ele><time>2026-03-20T17:43:35.617Z</time></trkpt><trkpt lat="45.468745" lon="10.5025767"><ele>145.0</ele><time>2026-03-20T17:43:36.617Z</time></trkpt><trkpt lat="45.4688583" lon="10.5025633"><ele>144.5</ele><time>2026-03-20T17:43:37.617Z</time></trkpt><trkpt lat="45.468975" lon="10.5025083"><ele>144.0</ele><time>2026-03-20T17:43:38.617Z</time></trkpt><trkpt lat="45.4690917" lon="10.5024467"><ele>143.5</ele><time>2026-03-20T17:43:39.618Z</time></trkpt><trkpt lat="45.4692217" lon="10.5023317"><ele>143.0</ele><time>2026-03-20T17:43:40.617Z</time></trkpt><trkpt lat="45.4693417" lon="10.502225"><ele>143.0</ele><time>2026-03-20T17:43:41.617Z</time></trkpt><trkpt lat="45.4694633" lon="10.50214"><ele>143.0</ele><time>2026-03-20T17:43:42.618Z</time></trkpt><trkpt lat="45.469585" lon="10.502075"><ele>143.0</ele><time>2026-03-20T17:43:43.617Z</time></trkpt><trkpt lat="45.4697183" lon="10.5020283"><ele>143.0</ele><time>2026-03-20T17:43:44.617Z</time></trkpt><trkpt lat="45.46985" lon="10.5019617"><ele>143.0</ele><time>2026-03-20T17:43:45.617Z</time></trkpt><trkpt lat="45.4699717" lon="10.50194"><ele>143.0</ele><time>2026-03-20T17:43:46.617Z</time></trkpt><trkpt lat="45.470085" lon="10.5019367"><ele>143.0</ele><time>2026-03-20T17:43:47.617Z</time></trkpt><trkpt lat="45.4701867" lon="10.5019433"><ele>143.0</ele><time>2026-03-20T17:43:48.617Z</time></trkpt><trkpt lat="45.4702783" lon="10.5019517"><ele>143.0</ele><time>2026-03-20T17:43:49.618Z</time></trkpt><trkpt lat="45.4702767" lon="10.5020583"><ele>141.6</ele><time>2026-03-20T17:43:52.617Z</time></trkpt><trkpt lat="45.4702717" lon="10.5021683"><ele>140.20000000000002</ele><time>2026-03-20T17:43:55.617Z</time></trkpt><trkpt lat="45.4702417" lon="10.5022617"><ele>138.8</ele><time>2026-03-20T17:43:57.617Z</time></trkpt><trkpt lat="45.4701783" lon="10.5023767"><ele>137.4</ele><time>2026-03-20T17:43:59.617Z</time></trkpt><trkpt lat="45.4701017" lon="10.50248"><ele>136.0</ele><time>2026-03-20T17:44:01.617Z</time></trkpt><trkpt lat="45.4700317" lon="10.5026"><ele>136.0</ele><time>2026-03-20T17:44:03.617Z</time></trkpt><trkpt lat="45.4699483" lon="10.50272"><ele>136.0</ele><time>2026-03-20T17:44:05.618Z</time></trkpt><trkpt lat="45.4699033" lon="10.5027867"><ele>136.0</ele><time>2026-03-20T17:44:06.617Z</time></trkpt><trkpt lat="45.4698617" lon="10.502855"><ele>136.0</ele><time>2026-03-20T17:44:07.618Z</time></trkpt><trkpt lat="45.4698067" lon="10.502925"><ele>136.0</ele><time>2026-03-20T17:44:08.617Z</time></trkpt><trkpt lat="45.469765" lon="10.5030133"><ele>136.0</ele><time>2026-03-20T17:44:09.617Z</time></trkpt><trkpt lat="45.46973" lon="10.5031033"><ele>136.0</ele><time>2026-03-20T17:44:10.617Z</time></trkpt><trkpt lat="45.469695" lon="10.5032017"><ele>136.0</ele><time>2026-03-20T17:44:11.617Z</time></trkpt><trkpt lat="45.469665" lon="10.5033067"><ele>136.0</ele><time>2026-03-20T17:44:12.617Z</time></trkpt><trkpt lat="45.4696367" lon="10.50342"><ele>136.0</ele><time>2026-03-20T17:44:13.617Z</time></trkpt><trkpt lat="45.469605" lon="10.503535"><ele>136.0</ele><time>2026-03-20T17:44:14.617Z</time></trkpt><trkpt lat="45.46958" lon="10.503655"><ele>136.0</ele><time>2026-03-20T17:44:15.617Z</time></trkpt><trkpt lat="45.4695683" lon="10.5037783"><ele>136.25</ele><time>2026-03-20T17:44:16.617Z</time></trkpt><trkpt lat="45.46956" lon="10.5039233"><ele>136.5</ele><time>2026-03-20T17:44:17.617Z</time></trkpt><trkpt lat="45.4695783" lon="10.5040817"><ele>136.75</ele><time>2026-03-20T17:44:18.617Z</time></trkpt><trkpt lat="45.4695933" lon="10.5042533"><ele>137.0</ele><time>2026-03-20T17:44:19.617Z</time></trkpt><trkpt lat="45.4696083" lon="10.50442"><ele>137.0</ele><time>2026-03-20T17:44:20.618Z</time></trkpt><trkpt lat="45.4696367" lon="10.50458"><ele>137.0</ele><time>2026-03-20T17:44:21.617Z</time></trkpt><trkpt lat="45.4696567" lon="10.5047117"><ele>137.0</ele><time>2026-03-20T17:44:22.617Z</time></trkpt><trkpt lat="45.46965" lon="10.504835"><ele>137.0</ele><time>2026-03-20T17:44:23.617Z</time></trkpt><trkpt lat="45.4696417" lon="10.5049533"><ele>137.0</ele><time>2026-03-20T17:44:24.617Z</time></trkpt><trkpt lat="45.4696067" lon="10.5050633"><ele>137.0</ele><time>2026-03-20T17:44:25.617Z</time></trkpt><trkpt lat="45.4695833" lon="10.50519"><ele>137.0</ele><time>2026-03-20T17:44:26.617Z</time></trkpt><trkpt lat="45.4695467" lon="10.5053217"><ele>137.0</ele><time>2026-03-20T17:44:27.618Z</time></trkpt><trkpt lat="45.469515" lon="10.505475"><ele>137.0</ele><time>2026-03-20T17:44:28.617Z</time></trkpt><trkpt lat="45.469495" lon="10.50564"><ele>137.0</ele><time>2026-03-20T17:44:29.617Z</time></trkpt><trkpt lat="45.4694683" lon="10.5058067"><ele>136.25</ele><time>2026-03-20T17:44:30.617Z</time></trkpt><trkpt lat="45.4694433" lon="10.5059767"><ele>135.5</ele><time>2026-03-20T17:44:31.617Z</time></trkpt><trkpt lat="45.4694133" lon="10.5061483"><ele>134.75</ele><time>2026-03-20T17:44:32.617Z</time></trkpt><trkpt lat="45.4693817" lon="10.506305"><ele>134.0</ele><time>2026-03-20T17:44:33.617Z</time></trkpt><trkpt lat="45.4693483" lon="10.5064567"><ele>133.2</ele><time>2026-03-20T17:44:34.618Z</time></trkpt><trkpt lat="45.46932" lon="10.5066017"><ele>132.4</ele><time>2026-03-20T17:44:35.618Z</time></trkpt><trkpt lat="45.4692817" lon="10.50674"><ele>131.6</ele><time>2026-03-20T17:44:36.617Z</time></trkpt><trkpt lat="45.4692483" lon="10.50687"><ele>130.8</ele><time>2026-03-20T17:44:37.617Z</time></trkpt><trkpt lat="45.4692217" lon="10.506985"><ele>130.0</ele><time>2026-03-20T17:44:38.618Z</time></trkpt><trkpt lat="45.4691917" lon="10.5070833"><ele>129.83333333333334</ele><time>2026-03-20T17:44:39.617Z</time></trkpt><trkpt lat="45.4691483" lon="10.507165"><ele>129.66666666666669</ele><time>2026-03-20T17:44:40.618Z</time></trkpt><trkpt lat="45.4691117" lon="10.50725"><ele>129.5</ele><time>2026-03-20T17:44:41.617Z</time></trkpt><trkpt lat="45.469085" lon="10.5073333"><ele>129.33333333333334</ele><time>2026-03-20T17:44:42.617Z</time></trkpt><trkpt lat="45.469035" lon="10.507415"><ele>129.16666666666666</ele><time>2026-03-20T17:44:43.617Z</time></trkpt><trkpt lat="45.4689967" lon="10.5075233"><ele>129.0</ele><time>2026-03-20T17:44:44.617Z</time></trkpt><trkpt lat="45.4689767" lon="10.50766"><ele>129.0</ele><time>2026-03-20T17:44:45.618Z</time></trkpt><trkpt lat="45.4689517" lon="10.5078133"><ele>129.0</ele><time>2026-03-20T17:44:46.617Z</time></trkpt><trkpt lat="45.4689317" lon="10.5079567"><ele>129.0</ele><time>2026-03-20T17:44:47.617Z</time></trkpt><trkpt lat="45.4689217" lon="10.5081033"><ele>129.0</ele><time>2026-03-20T17:44:48.617Z</time></trkpt><trkpt lat="45.4689217" lon="10.50824"><ele>129.0</ele><time>2026-03-20T17:44:49.617Z</time></trkpt><trkpt lat="45.4689267" lon="10.50838"><ele>129.2</ele><time>2026-03-20T17:44:50.617Z</time></trkpt><trkpt lat="45.468945" lon="10.50852"><ele>129.4</ele><time>2026-03-20T17:44:51.618Z</time></trkpt><trkpt lat="45.4689767" lon="10.5086583"><ele>129.6</ele><time>2026-03-20T17:44:52.617Z</time></trkpt><trkpt lat="45.46902" lon="10.5088083"><ele>129.8</ele><time>2026-03-20T17:44:53.617Z</time></trkpt><trkpt lat="45.46908" lon="10.5089567"><ele>130.0</ele><time>2026-03-20T17:44:54.617Z</time></trkpt><trkpt lat="45.4691367" lon="10.50911"><ele>129.6</ele><time>2026-03-20T17:44:55.618Z</time></trkpt><trkpt lat="45.4692033" lon="10.50925"><ele>129.2</ele><time>2026-03-20T17:44:56.617Z</time></trkpt><trkpt lat="45.46926" lon="10.509385"><ele>128.8</ele><time>2026-03-20T17:44:57.617Z</time></trkpt><trkpt lat="45.469315" lon="10.509515"><ele>128.4</ele><time>2026-03-20T17:44:58.617Z</time></trkpt><trkpt lat="45.4693567" lon="10.5096633"><ele>128.0</ele><time>2026-03-20T17:44:59.617Z</time></trkpt><trkpt lat="45.46939" lon="10.5097983"><ele>127.75</ele><time>2026-03-20T17:45:00.617Z</time></trkpt><trkpt lat="45.4694267" lon="10.5099333"><ele>127.5</ele><time>2026-03-20T17:45:01.618Z</time></trkpt><trkpt lat="45.4694683" lon="10.5100783"><ele>127.25</ele><time>2026-03-20T17:45:02.617Z</time></trkpt><trkpt lat="45.4695267" lon="10.510225"><ele>127.0</ele><time>2026-03-20T17:45:03.617Z</time></trkpt><trkpt lat="45.4695733" lon="10.510395"><ele>127.19999999999999</ele><time>2026-03-20T17:45:04.617Z</time></trkpt><trkpt lat="45.4696233" lon="10.510545"><ele>127.39999999999999</ele><time>2026-03-20T17:45:05.617Z</time></trkpt><trkpt lat="45.4696583" lon="10.510685"><ele>127.60000000000001</ele><time>2026-03-20T17:45:06.617Z</time></trkpt><trkpt lat="45.4696933" lon="10.5108317"><ele>127.80000000000001</ele><time>2026-03-20T17:45:07.618Z</time></trkpt><trkpt lat="45.4697333" lon="10.5109783"><ele>128.0</ele><time>2026-03-20T17:45:08.617Z</time></trkpt><trkpt lat="45.46978" lon="10.5111367"><ele>128.6</ele><time>2026-03-20T17:45:09.617Z</time></trkpt><trkpt lat="45.4698083" lon="10.511295"><ele>129.20000000000002</ele><time>2026-03-20T17:45:10.617Z</time></trkpt><trkpt lat="45.4698383" lon="10.5114417"><ele>129.8</ele><time>2026-03-20T17:45:11.618Z</time></trkpt><trkpt lat="45.4698733" lon="10.511595"><ele>130.4</ele><time>2026-03-20T17:45:12.617Z</time></trkpt><trkpt lat="45.4699183" lon="10.511745"><ele>131.0</ele><time>2026-03-20T17:45:13.617Z</time></trkpt><trkpt lat="45.46997" lon="10.5118933"><ele>131.0</ele><time>2026-03-20T17:45:14.617Z</time></trkpt><trkpt lat="45.4700267" lon="10.5120417"><ele>131.0</ele><time>2026-03-20T17:45:15.617Z</time></trkpt><trkpt lat="45.4700867" lon="10.5122"><ele>131.0</ele><time>2026-03-20T17:45:16.617Z</time></trkpt><trkpt lat="45.4701517" lon="10.5123267"><ele>131.0</ele><time>2026-03-20T17:45:17.617Z</time></trkpt><trkpt lat="45.4702267" lon="10.5124467"><ele>131.2</ele><time>2026-03-20T17:45:18.617Z</time></trkpt><trkpt lat="45.47029" lon="10.5125617"><ele>131.39999999999998</ele><time>2026-03-20T17:45:19.617Z</time></trkpt><trkpt lat="45.4703517" lon="10.5126667"><ele>131.6</ele><time>2026-03-20T17:45:20.617Z</time></trkpt><trkpt lat="45.4704033" lon="10.5127733"><ele>131.79999999999998</ele><time>2026-03-20T17:45:21.617Z</time></trkpt><trkpt lat="45.47046" lon="10.5128967"><ele>132.0</ele><time>2026-03-20T17:45:22.617Z</time></trkpt><trkpt lat="45.4705217" lon="10.5130167"><ele>132.0</ele><time>2026-03-20T17:45:23.617Z</time></trkpt><trkpt lat="45.47059" lon="10.513135"><ele>132.0</ele><time>2026-03-20T17:45:24.617Z</time></trkpt><trkpt lat="45.4706567" lon="10.5132483"><ele>132.0</ele><time>2026-03-20T17:45:25.617Z</time></trkpt><trkpt lat="45.47072" lon="10.5133783"><ele>132.0</ele><time>2026-03-20T17:45:26.617Z</time></trkpt><trkpt lat="45.4707883" lon="10.513545"><ele>132.0</ele><time>2026-03-20T17:45:27.617Z</time></trkpt><trkpt lat="45.470855" lon="10.5137317"><ele>132.0</ele><time>2026-03-20T17:45:28.617Z</time></trkpt><trkpt lat="45.47091" lon="10.5139317"><ele>132.0</ele><time>2026-03-20T17:45:29.618Z</time></trkpt><trkpt lat="45.4709683" lon="10.5141017"><ele>132.0</ele><time>2026-03-20T17:45:30.617Z</time></trkpt><trkpt lat="45.471025" lon="10.5142667"><ele>132.2</ele><time>2026-03-20T17:45:31.617Z</time></trkpt><trkpt lat="45.4710867" lon="10.5144067"><ele>132.39999999999998</ele><time>2026-03-20T17:45:32.618Z</time></trkpt><trkpt lat="45.47114" lon="10.514535"><ele>132.60000000000002</ele><time>2026-03-20T17:45:33.618Z</time></trkpt><trkpt lat="45.4711933" lon="10.5146517"><ele>132.8</ele><time>2026-03-20T17:45:34.617Z</time></trkpt><trkpt lat="45.4712383" lon="10.5147733"><ele>133.0</ele><time>2026-03-20T17:45:35.617Z</time></trkpt><trkpt lat="45.4712867" lon="10.514875"><ele>132.83333333333334</ele><time>2026-03-20T17:45:36.617Z</time></trkpt><trkpt lat="45.4713333" lon="10.5149617"><ele>132.66666666666669</ele><time>2026-03-20T17:45:37.617Z</time></trkpt><trkpt lat="45.4713667" lon="10.51505"><ele>132.5</ele><time>2026-03-20T17:45:38.617Z</time></trkpt><trkpt lat="45.4714" lon="10.5151433"><ele>132.33333333333334</ele><time>2026-03-20T17:45:39.618Z</time></trkpt><trkpt lat="45.4714333" lon="10.51526"><ele>132.16666666666666</ele><time>2026-03-20T17:45:41.617Z</time></trkpt><trkpt lat="45.4714767" lon="10.5153633"><ele>132.0</ele><time>2026-03-20T17:45:44.617Z</time></trkpt><trkpt lat="45.4714917" lon="10.5155067"><ele>132.0</ele><time>2026-03-20T17:45:47.618Z</time></trkpt><trkpt lat="45.4714667" lon="10.51569"><ele>132.0</ele><time>2026-03-20T17:45:49.617Z</time></trkpt><trkpt lat="45.4714517" lon="10.5158267"><ele>132.0</ele><time>2026-03-20T17:45:50.617Z</time></trkpt><trkpt lat="45.4714217" lon="10.51598"><ele>132.0</ele><time>2026-03-20T17:45:51.618Z</time></trkpt><trkpt lat="45.471385" lon="10.5161483"><ele>132.5</ele><time>2026-03-20T17:45:52.617Z</time></trkpt><trkpt lat="45.47132" lon="10.516325"><ele>133.0</ele><time>2026-03-20T17:45:53.617Z</time></trkpt><trkpt lat="45.4712617" lon="10.51649"><ele>133.5</ele><time>2026-03-20T17:45:54.617Z</time></trkpt><trkpt lat="45.471205" lon="10.5166283"><ele>134.0</ele><time>2026-03-20T17:45:55.617Z</time></trkpt><trkpt lat="45.471145" lon="10.5167717"><ele>134.0</ele><time>2026-03-20T17:45:56.617Z</time></trkpt><trkpt lat="45.4710917" lon="10.5168917"><ele>134.0</ele><time>2026-03-20T17:45:57.617Z</time></trkpt><trkpt lat="45.4710233" lon="10.5170217"><ele>134.0</ele><time>2026-03-20T17:45:58.617Z</time></trkpt><trkpt lat="45.4709367" lon="10.5171767"><ele>134.0</ele><time>2026-03-20T17:45:59.617Z</time></trkpt><trkpt lat="45.4708467" lon="10.5173317"><ele>132.0</ele><time>2026-03-20T17:46:00.617Z</time></trkpt><trkpt lat="45.47076" lon="10.517475"><ele>130.0</ele><time>2026-03-20T17:46:01.617Z</time></trkpt><trkpt lat="45.4706733" lon="10.5176067"><ele>128.0</ele><time>2026-03-20T17:46:02.617Z</time></trkpt><trkpt lat="45.4706033" lon="10.517735"><ele>126.0</ele><time>2026-03-20T17:46:03.617Z</time></trkpt><trkpt lat="45.470505" lon="10.5178533"><ele>126.0</ele><time>2026-03-20T17:46:04.617Z</time></trkpt><trkpt lat="45.47042" lon="10.517975"><ele>126.0</ele><time>2026-03-20T17:46:05.617Z</time></trkpt><trkpt lat="45.47031" lon="10.51807"><ele>126.0</ele><time>2026-03-20T17:46:06.617Z</time></trkpt><trkpt lat="45.4702133" lon="10.5181083"><ele>126.0</ele><time>2026-03-20T17:46:07.617Z</time></trkpt><trkpt lat="45.47011" lon="10.518115"><ele>126.0</ele><time>2026-03-20T17:46:08.617Z</time></trkpt><trkpt lat="45.470005" lon="10.5180633"><ele>126.0</ele><time>2026-03-20T17:46:09.617Z</time></trkpt><trkpt lat="45.4698933" lon="10.518025"><ele>126.0</ele><time>2026-03-20T17:46:10.617Z</time></trkpt><trkpt lat="45.4697833" lon="10.5179867"><ele>126.0</ele><time>2026-03-20T17:46:11.617Z</time></trkpt><trkpt lat="45.469665" lon="10.5179367"><ele>127.0</ele><time>2026-03-20T17:46:12.617Z</time></trkpt><trkpt lat="45.4695483" lon="10.51788"><ele>128.0</ele><time>2026-03-20T17:46:13.617Z</time></trkpt><trkpt lat="45.4694417" lon="10.5178333"><ele>129.0</ele><time>2026-03-20T17:46:14.617Z</time></trkpt><trkpt lat="45.4693217" lon="10.5178017"><ele>130.0</ele><time>2026-03-20T17:46:15.617Z</time></trkpt><trkpt lat="45.4692117" lon="10.5177767"><ele>130.0</ele><time>2026-03-20T17:46:16.617Z</time></trkpt><trkpt lat="45.4691033" lon="10.517755"><ele>130.0</ele><time>2026-03-20T17:46:17.618Z</time></trkpt><trkpt lat="45.4690083" lon="10.5177483"><ele>130.0</ele><time>2026-03-20T17:46:18.617Z</time></trkpt><trkpt lat="45.468925" lon="10.5177417"><ele>130.0</ele><time>2026-03-20T17:46:19.618Z</time></trkpt><trkpt lat="45.4688433" lon="10.5177433"><ele>130.0</ele><time>2026-03-20T17:46:20.617Z</time></trkpt><trkpt lat="45.4687317" lon="10.517765"><ele>129.5</ele><time>2026-03-20T17:46:22.618Z</time></trkpt><trkpt lat="45.4686883" lon="10.5178317"><ele>129.0</ele><time>2026-03-20T17:46:32.617Z</time></trkpt><trkpt lat="45.46869" lon="10.5179883"><ele>128.5</ele><time>2026-03-20T17:46:34.617Z</time></trkpt><trkpt lat="45.46872" lon="10.5181033"><ele>128.0</ele><time>2026-03-20T17:46:35.617Z</time></trkpt><trkpt lat="45.4687417" lon="10.5182217"><ele>127.50000000000001</ele><time>2026-03-20T17:46:36.618Z</time></trkpt><trkpt lat="45.468765" lon="10.5183433"><ele>127.0</ele><time>2026-03-20T17:46:37.618Z</time></trkpt><trkpt lat="45.46878" lon="10.51846"><ele>126.39999999999999</ele><time>2026-03-20T17:46:38.618Z</time></trkpt><trkpt lat="45.468795" lon="10.5185833"><ele>125.79999999999998</ele><time>2026-03-20T17:46:39.617Z</time></trkpt><trkpt lat="45.4688133" lon="10.5187083"><ele>125.2</ele><time>2026-03-20T17:46:40.617Z</time></trkpt><trkpt lat="45.46883" lon="10.5188433"><ele>124.6</ele><time>2026-03-20T17:46:41.617Z</time></trkpt><trkpt lat="45.4688417" lon="10.5189867"><ele>124.0</ele><time>2026-03-20T17:46:42.617Z</time></trkpt><trkpt lat="45.4688467" lon="10.5191433"><ele>124.0</ele><time>2026-03-20T17:46:43.617Z</time></trkpt><trkpt lat="45.4688567" lon="10.519305"><ele>124.0</ele><time>2026-03-20T17:46:44.617Z</time></trkpt><trkpt lat="45.4688633" lon="10.5194833"><ele>124.0</ele><time>2026-03-20T17:46:45.617Z</time></trkpt><trkpt lat="45.468875" lon="10.5196517"><ele>124.0</ele><time>2026-03-20T17:46:46.617Z</time></trkpt><trkpt lat="45.4689083" lon="10.5198133"><ele>124.75</ele><time>2026-03-20T17:46:47.617Z</time></trkpt><trkpt lat="45.4689483" lon="10.5200017"><ele>125.5</ele><time>2026-03-20T17:46:48.617Z</time></trkpt><trkpt lat="45.4689483" lon="10.520195"><ele>126.25</ele><time>2026-03-20T17:46:49.617Z</time></trkpt><trkpt lat="45.46894" lon="10.52038"><ele>127.0</ele><time>2026-03-20T17:46:50.617Z</time></trkpt><trkpt lat="45.4689367" lon="10.5205833"><ele>130.33333333333334</ele><time>2026-03-20T17:46:51.617Z</time></trkpt><trkpt lat="45.46894" lon="10.5207983"><ele>133.66666666666666</ele><time>2026-03-20T17:46:52.617Z</time></trkpt><trkpt lat="45.4688833" lon="10.52102"><ele>137.0</ele><time>2026-03-20T17:46:53.617Z</time></trkpt><trkpt lat="45.4688317" lon="10.521245"><ele>137.5</ele><time>2026-03-20T17:46:54.617Z</time></trkpt><trkpt lat="45.4688183" lon="10.5214667"><ele>138.0</ele><time>2026-03-20T17:46:55.617Z</time></trkpt><trkpt lat="45.468815" lon="10.52168"><ele>138.5</ele><time>2026-03-20T17:46:56.617Z</time></trkpt><trkpt lat="45.4687917" lon="10.52186"><ele>139.0</ele><time>2026-03-20T17:46:57.617Z</time></trkpt><trkpt lat="45.468805" lon="10.52205"><ele>137.75</ele><time>2026-03-20T17:46:58.618Z</time></trkpt><trkpt lat="45.4688383" lon="10.52225"><ele>136.5</ele><time>2026-03-20T17:46:59.617Z</time></trkpt><trkpt lat="45.468835" lon="10.5224367"><ele>135.25</ele><time>2026-03-20T17:47:00.617Z</time></trkpt><trkpt lat="45.4688333" lon="10.52262"><ele>134.0</ele><time>2026-03-20T17:47:01.617Z</time></trkpt><trkpt lat="45.468775" lon="10.52279"><ele>130.75</ele><time>2026-03-20T17:47:02.617Z</time></trkpt><trkpt lat="45.4687617" lon="10.522985"><ele>127.5</ele><time>2026-03-20T17:47:03.617Z</time></trkpt><trkpt lat="45.4687017" lon="10.5231767"><ele>124.25</ele><time>2026-03-20T17:47:04.617Z</time></trkpt><trkpt lat="45.4686967" lon="10.5233967"><ele>121.0</ele><time>2026-03-20T17:47:05.617Z</time></trkpt><trkpt lat="45.46869" lon="10.5236117"><ele>120.0</ele><time>2026-03-20T17:47:06.617Z</time></trkpt><trkpt lat="45.4686783" lon="10.5238117"><ele>119.0</ele><time>2026-03-20T17:47:07.617Z</time></trkpt><trkpt lat="45.468665" lon="10.524"><ele>118.0</ele><time>2026-03-20T17:47:08.617Z</time></trkpt><trkpt lat="45.4686533" lon="10.5241883"><ele>117.0</ele><time>2026-03-20T17:47:09.617Z</time></trkpt><trkpt lat="45.4686517" lon="10.5243933"><ele>116.0</ele><time>2026-03-20T17:47:10.617Z</time></trkpt><trkpt lat="45.46865" lon="10.524595"><ele>115.0</ele><time>2026-03-20T17:47:11.618Z</time></trkpt><trkpt lat="45.4686733" lon="10.5248067"><ele>114.0</ele><time>2026-03-20T17:47:12.617Z</time></trkpt><trkpt lat="45.4687183" lon="10.5250283"><ele>114.0</ele><time>2026-03-20T17:47:13.617Z</time></trkpt><trkpt lat="45.4687517" lon="10.5252433"><ele>114.0</ele><time>2026-03-20T17:47:14.617Z</time></trkpt><trkpt lat="45.4687833" lon="10.5254433"><ele>114.0</ele><time>2026-03-20T17:47:15.617Z</time></trkpt><trkpt lat="45.4688033" lon="10.5256517"><ele>114.0</ele><time>2026-03-20T17:47:16.617Z</time></trkpt><trkpt lat="45.4688417" lon="10.525855"><ele>113.5</ele><time>2026-03-20T17:47:17.617Z</time></trkpt><trkpt lat="45.468885" lon="10.5260517"><ele>113.0</ele><time>2026-03-20T17:47:18.617Z</time></trkpt><trkpt lat="45.4689233" lon="10.5262517"><ele>112.5</ele><time>2026-03-20T17:47:19.617Z</time></trkpt><trkpt lat="45.4689617" lon="10.5264517"><ele>112.0</ele><time>2026-03-20T17:47:20.617Z</time></trkpt><trkpt lat="45.4689933" lon="10.5266283"><ele>110.25</ele><time>2026-03-20T17:47:21.617Z</time></trkpt><trkpt lat="45.4690133" lon="10.5268267"><ele>108.5</ele><time>2026-03-20T17:47:22.617Z</time></trkpt><trkpt lat="45.46904" lon="10.5270183"><ele>106.75</ele><time>2026-03-20T17:47:23.617Z</time></trkpt><trkpt lat="45.469065" lon="10.5272"><ele>105.0</ele><time>2026-03-20T17:47:24.617Z</time></trkpt><trkpt lat="45.4690967" lon="10.527365"><ele>104.4</ele><time>2026-03-20T17:47:25.617Z</time></trkpt><trkpt lat="45.4691233" lon="10.5275333"><ele>103.8</ele><time>2026-03-20T17:47:26.617Z</time></trkpt><trkpt lat="45.4691467" lon="10.5276833"><ele>103.19999999999999</ele><time>2026-03-20T17:47:27.617Z</time></trkpt><trkpt lat="45.4691683" lon="10.527805"><ele>102.6</ele><time>2026-03-20T17:47:28.617Z</time></trkpt><trkpt lat="45.4691933" lon="10.527925"><ele>102.0</ele><time>2026-03-20T17:47:29.617Z</time></trkpt><trkpt lat="45.4692217" lon="10.5280233"><ele>101.33333333333333</ele><time>2026-03-20T17:47:30.617Z</time></trkpt><trkpt lat="45.469245" lon="10.5281283"><ele>100.66666666666666</ele><time>2026-03-20T17:47:31.617Z</time></trkpt><trkpt lat="45.4692633" lon="10.5282367"><ele>100.0</ele><time>2026-03-20T17:47:32.617Z</time></trkpt><trkpt lat="45.4692817" lon="10.5283267"><ele>99.33333333333333</ele><time>2026-03-20T17:47:33.617Z</time></trkpt><trkpt lat="45.4692967" lon="10.5284667"><ele>98.66666666666666</ele><time>2026-03-20T17:47:35.617Z</time></trkpt><trkpt lat="45.4692567" lon="10.52855"><ele>98.0</ele><time>2026-03-20T17:47:38.617Z</time></trkpt><trkpt lat="45.4692083" lon="10.5286217"><ele>97.99999999999999</ele><time>2026-03-20T17:47:40.617Z</time></trkpt><trkpt lat="45.4691267" lon="10.5287067"><ele>98.0</ele><time>2026-03-20T17:47:42.617Z</time></trkpt><trkpt lat="45.4690517" lon="10.5287233"><ele>98.0</ele><time>2026-03-20T17:47:43.617Z</time></trkpt><trkpt lat="45.4689617" lon="10.5287183"><ele>98.0</ele><time>2026-03-20T17:47:44.617Z</time></trkpt><trkpt lat="45.4688717" lon="10.5286883"><ele>97.99999999999999</ele><time>2026-03-20T17:47:45.617Z</time></trkpt><trkpt lat="45.4687933" lon="10.5286417"><ele>98.0</ele><time>2026-03-20T17:47:46.617Z</time></trkpt><trkpt lat="45.4687283" lon="10.528575"><ele>97.60000000000001</ele><time>2026-03-20T17:47:47.617Z</time></trkpt><trkpt lat="45.4686533" lon="10.5285233"><ele>97.2</ele><time>2026-03-20T17:47:48.617Z</time></trkpt><trkpt lat="45.4685633" lon="10.5284733"><ele>96.8</ele><time>2026-03-20T17:47:49.617Z</time></trkpt><trkpt lat="45.4684717" lon="10.5284167"><ele>96.4</ele><time>2026-03-20T17:47:50.617Z</time></trkpt><trkpt lat="45.4683733" lon="10.5283533"><ele>96.0</ele><time>2026-03-20T17:47:51.617Z</time></trkpt><trkpt lat="45.4682783" lon="10.5282867"><ele>96.0</ele><time>2026-03-20T17:47:52.617Z</time></trkpt><trkpt lat="45.46818" lon="10.5282233"><ele>96.0</ele><time>2026-03-20T17:47:53.617Z</time></trkpt><trkpt lat="45.46809" lon="10.5281533"><ele>96.0</ele><time>2026-03-20T17:47:54.617Z</time></trkpt><trkpt lat="45.4680033" lon="10.52809"><ele>96.0</ele><time>2026-03-20T17:47:55.617Z</time></trkpt><trkpt lat="45.46791" lon="10.5280283"><ele>96.0</ele><time>2026-03-20T17:47:56.617Z</time></trkpt><trkpt lat="45.4678267" lon="10.5280133"><ele>95.66666666666667</ele><time>2026-03-20T17:47:57.617Z</time></trkpt><trkpt lat="45.46773" lon="10.527935"><ele>95.33333333333334</ele><time>2026-03-20T17:47:58.618Z</time></trkpt><trkpt lat="45.4676283" lon="10.5278783"><ele>95.0</ele><time>2026-03-20T17:47:59.617Z</time></trkpt><trkpt lat="45.463265" lon="10.531595"><ele>95.0</ele><time>2026-03-20T17:50:20.617Z</time></trkpt><trkpt lat="45.46316" lon="10.531675"><ele>95.0</ele><time>2026-03-20T17:50:21.617Z</time></trkpt><trkpt lat="45.463055" lon="10.53174"><ele>95.0</ele><time>2026-03-20T17:50:22.618Z</time></trkpt><trkpt lat="45.4629383" lon="10.53181"><ele>95.0</ele><time>2026-03-20T17:50:23.617Z</time></trkpt><trkpt lat="45.4628233" lon="10.5318683"><ele>95.16666666666667</ele><time>2026-03-20T17:50:24.618Z</time></trkpt><trkpt lat="45.46273" lon="10.53192"><ele>95.33333333333334</ele><time>2026-03-20T17:50:25.617Z</time></trkpt><trkpt lat="45.4626433" lon="10.531935"><ele>95.5</ele><time>2026-03-20T17:50:26.617Z</time></trkpt><trkpt lat="45.4625533" lon="10.5319383"><ele>95.66666666666667</ele><time>2026-03-20T17:50:27.618Z</time></trkpt><trkpt lat="45.4624817" lon="10.5319317"><ele>95.83333333333333</ele><time>2026-03-20T17:50:28.617Z</time></trkpt><trkpt lat="45.4624083" lon="10.53194"><ele>96.0</ele><time>2026-03-20T17:50:29.617Z</time></trkpt><trkpt lat="45.4623067" lon="10.5320133"><ele>96.0</ele><time>2026-03-20T17:50:31.618Z</time></trkpt><trkpt lat="45.4623867" lon="10.53229"><ele>96.0</ele><time>2026-03-20T17:50:33.617Z</time></trkpt><trkpt lat="45.4624417" lon="10.53241"><ele>96.0</ele><time>2026-03-20T17:50:34.617Z</time></trkpt><trkpt lat="45.462505" lon="10.532525"><ele>96.0</ele><time>2026-03-20T17:50:35.618Z</time></trkpt><trkpt lat="45.4625617" lon="10.5326383"><ele>96.0</ele><time>2026-03-20T17:50:36.617Z</time></trkpt><trkpt lat="45.4626" lon="10.53274"><ele>96.0</ele><time>2026-03-20T17:50:37.617Z</time></trkpt><trkpt lat="45.46263" lon="10.5328567"><ele>96.0</ele><time>2026-03-20T17:50:38.617Z</time></trkpt><trkpt lat="45.4626433" lon="10.5329767"><ele>96.0</ele><time>2026-03-20T17:50:39.617Z</time></trkpt><trkpt lat="45.462625" lon="10.53308"><ele>96.0</ele><time>2026-03-20T17:50:40.617Z</time></trkpt><trkpt lat="45.4625817" lon="10.533165"><ele>96.0</ele><time>2026-03-20T17:50:41.617Z</time></trkpt><trkpt lat="45.4625333" lon="10.5332517"><ele>97.0</ele><time>2026-03-20T17:50:42.617Z</time></trkpt><trkpt lat="45.4624783" lon="10.5333333"><ele>98.0</ele><time>2026-03-20T17:50:43.618Z</time></trkpt><trkpt lat="45.4624" lon="10.5334067"><ele>99.0</ele><time>2026-03-20T17:50:44.617Z</time></trkpt><trkpt lat="45.4623167" lon="10.5334817"><ele>100.0</ele><time>2026-03-20T17:50:45.618Z</time></trkpt><trkpt lat="45.4621767" lon="10.5335017"><ele>101.0</ele><time>2026-03-20T17:50:46.617Z</time></trkpt><trkpt lat="45.4620483" lon="10.533545"><ele>101.0</ele><time>2026-03-20T17:50:47.617Z</time></trkpt><trkpt lat="45.4619283" lon="10.5335967"><ele>101.0</ele><time>2026-03-20T17:50:48.617Z</time></trkpt><trkpt lat="45.46181" lon="10.5336783"><ele>101.0</ele><time>2026-03-20T17:50:49.617Z</time></trkpt><trkpt lat="45.4616967" lon="10.53376"><ele>101.0</ele><time>2026-03-20T17:50:50.617Z</time></trkpt><trkpt lat="45.4615967" lon="10.5338517"><ele>103.0</ele><time>2026-03-20T17:50:51.617Z</time></trkpt><trkpt lat="45.4615" lon="10.533945"><ele>103.0</ele><time>2026-03-20T17:50:52.617Z</time></trkpt></trkseg></trk></gpx>